Observation data for Panhandle on 08/14/2020      Previous  Date  Next       Current Mesonet Observations  Soil Data  Daily Summary Page  Observations in Plain Language
KPA1 140500Z 03007KT 24/18 A3003 RMK A01 T02440179  RH  067%=      5-min Rain = 0
KPA1 140501Z 03007KT 24/18 A3003 RMK A01 T02430179  RH  067%=      5-min Rain = 0
KPA1 140502Z 03007KT 24/18 A3003 RMK A01 T02430179  RH  068%=      5-min Rain = 0
KPA1 140503Z 03007KT 24/18 A3003 RMK A01 T02420179  RH  068%=      5-min Rain = 0
KPA1 140504Z 03007KT 24/18 A3003 RMK A01 T02420180  RH  068%=      5-min Rain = 0
KPA1 140505Z 03007KT 24/18 A3003 RMK A01 T02420180  RH  068%=      5-min Rain = 0
KPA1 140506Z 03007KT 24/18 A3003 RMK A01 T02410179  RH  068%=      5-min Rain = 0
KPA1 140507Z 03007KT 24/18 A3004 RMK A01 T02410179  RH  068%=      5-min Rain = 0
KPA1 140508Z 03007KT 24/18 A3004 RMK A01 T02410179  RH  068%=      5-min Rain = 0
KPA1 140509Z 03008KT 24/18 A3003 RMK A01 T02420180  RH  068%=      5-min Rain = 0
KPA1 140510Z 03008KT 24/18 A3003 RMK A01 T02420180  RH  068%=      5-min Rain = 0
KPA1 140511Z 03008KT 24/18 A3003 RMK A01 T02430181  RH  068%=      5-min Rain = 0
KPA1 140512Z 03007KT 24/18 A3003 RMK A01 T02430182  RH  068%=      5-min Rain = 0
KPA1 140513Z 03007KT 24/18 A3003 RMK A01 T02430182  RH  069%=      5-min Rain = 0
KPA1 140514Z 03007KT 24/18 A3004 RMK A01 T02430182  RH  069%=      5-min Rain = 0
KPA1 140515Z 03007KT 24/18 A3004 RMK A01 T02430183  RH  069%=      5-min Rain = 0
KPA1 140516Z 03007KT 24/18 A3004 RMK A01 T02430182  RH  069%=      5-min Rain = 0
KPA1 140517Z 03007KT 24/18 A3004 RMK A01 T02430183  RH  069%=      5-min Rain = 0
KPA1 140518Z 03007KT 24/18 A3004 RMK A01 T02430183  RH  069%=      5-min Rain = 0
KPA1 140519Z 03007KT 24/18 A3004 RMK A01 T02420183  RH  070%=      5-min Rain = 0
KPA1 140520Z 03008KT 24/18 A3004 RMK A01 T02410183  RH  070%=      5-min Rain = 0
KPA1 140521Z 03008KT 24/18 A3004 RMK A01 T02400184  RH  071%=      5-min Rain = 0
KPA1 140522Z 03008KT 24/18 A3003 RMK A01 T02390184  RH  071%=      5-min Rain = 0
KPA1 140523Z 03008KT 24/19 A3003 RMK A01 T02390185  RH  072%=      5-min Rain = 0
KPA1 140524Z 03008KT 24/19 A3003 RMK A01 T02380185  RH  072%=      5-min Rain = 0
KPA1 140525Z 03008KT 24/19 A3003 RMK A01 T02390185  RH  072%=      5-min Rain = 0
KPA1 140526Z 03008KT 24/19 A3003 RMK A01 T02390186  RH  072%=      5-min Rain = 0
KPA1 140527Z 03008KT 24/19 A3003 RMK A01 T02390186  RH  072%=      5-min Rain = 0
KPA1 140528Z 03008KT 24/19 A3003 RMK A01 T02390187  RH  072%=      5-min Rain = 0
KPA1 140529Z 03008KT 24/19 A3003 RMK A01 T02390188  RH  073%=      5-min Rain = 0
KPA1 140530Z 03008KT 24/19 A3003 RMK A01 T02390188  RH  073%=      5-min Rain = 0
KPA1 140531Z 03008KT 24/19 A3003 RMK A01 T02390189  RH  073%=      5-min Rain = 0
KPA1 140532Z 03008KT 24/19 A3003 RMK A01 T02400189  RH  073%=      5-min Rain = 0
KPA1 140533Z 03008KT 24/19 A3003 RMK A01 T02400189  RH  073%=      5-min Rain = 0
KPA1 140534Z 03008KT 24/19 A3003 RMK A01 T02400190  RH  073%=      5-min Rain = 0
KPA1 140535Z 03007KT 24/19 A3003 RMK A01 T02400190  RH  073%=      5-min Rain = 0
KPA1 140536Z 03007KT 24/19 A3003 RMK A01 T02400190  RH  074%=      5-min Rain = 0
KPA1 140537Z 03007KT 24/19 A3003 RMK A01 T02380190  RH  074%=      5-min Rain = 0
KPA1 140538Z 04008KT 24/19 A3003 RMK A01 T02370189  RH  075%=      5-min Rain = 0
KPA1 140539Z 04008KT 24/19 A3003 RMK A01 T02360189  RH  075%=      5-min Rain = 0
KPA1 140540Z 03008KT 24/19 A3003 RMK A01 T02350190  RH  076%=      5-min Rain = 0
KPA1 140541Z 03007KT 24/19 A3003 RMK A01 T02350190  RH  076%=      5-min Rain = 0
KPA1 140542Z 03007KT 24/19 A3003 RMK A01 T02350190  RH  076%=      5-min Rain = 0
KPA1 140543Z 02007KT 24/19 A3003 RMK A01 T02350190  RH  076%=      5-min Rain = 0
KPA1 140544Z 03007KT 24/19 A3003 RMK A01 T02360190  RH  075%=      5-min Rain = 0
KPA1 140545Z 03007KT 24/19 A3003 RMK A01 T02370190  RH  075%=      5-min Rain = 0
KPA1 140546Z 03007KT 24/19 A3003 RMK A01 T02380191  RH  075%=      5-min Rain = 0
KPA1 140547Z 03007KT 24/19 A3003 RMK A01 T02390193  RH  075%=      5-min Rain = 0
KPA1 140548Z 03007KT 24/19 A3003 RMK A01 T02390193  RH  076%=      5-min Rain = 0
KPA1 140549Z 03007KT 24/19 A3003 RMK A01 T02390194  RH  076%=      5-min Rain = 0
KPA1 140550Z 02007KT 24/20 A3003 RMK A01 T02390195  RH  076%=      5-min Rain = 0
KPA1 140551Z 02008KT 24/20 A3003 RMK A01 T02390195  RH  076%=      5-min Rain = 0
KPA1 140552Z 02007KT 24/20 A3003 RMK A01 T02400195  RH  076%=      5-min Rain = 0
KPA1 140553Z 02007KT 24/20 A3003 RMK A01 T02400196  RH  076%=      5-min Rain = 0
KPA1 140554Z 02006KT 24/20 A3003 RMK A01 T02390196  RH  077%=      5-min Rain = 0
KPA1 140555Z 02007KT 24/20 A3003 RMK A01 T02390196  RH  077%=      5-min Rain = 0
KPA1 140556Z 02007KT 24/20 A3003 RMK A01 T02380196  RH  077%=      5-min Rain = 0
KPA1 140557Z 03007KT 24/20 A3003 RMK A01 T02370197  RH  078%=      5-min Rain = 0
KPA1 140558Z 03007KT 24/20 A3003 RMK A01 T02380197  RH  078%=      5-min Rain = 0
KPA1 140559Z 03007KT 24/20 A3003 RMK A01 T02370197  RH  078%=      5-min Rain = 0
KPA1 140600Z 03007KT 24/20 A3003 RMK A01 T02370198  RH  079%=      5-min Rain = 0
KPA1 140601Z 03007KT 24/20 A3003 RMK A01 T02360198  RH  079%=      5-min Rain = 0
KPA1 140602Z 03008KT 24/20 A3003 RMK A01 T02350197  RH  079%=      5-min Rain = 0
KPA1 140603Z 02008KT 24/20 A3003 RMK A01 T02350198  RH  080%=      5-min Rain = 0
KPA1 140604Z 03008KT 24/20 A3003 RMK A01 T02350198  RH  080%=      5-min Rain = 0
KPA1 140605Z 02008KT 24/20 A3003 RMK A01 T02350198  RH  079%=      5-min Rain = 0
KPA1 140606Z 02008KT 24/20 A3003 RMK A01 T02350198  RH  079%=      5-min Rain = 0
KPA1 140607Z 02008KT 24/20 A3003 RMK A01 T02350198  RH  079%=      5-min Rain = 0
KPA1 140608Z 02008KT 24/20 A3003 RMK A01 T02350197  RH  079%=      5-min Rain = 0
KPA1 140609Z 02008KT 24/20 A3003 RMK A01 T02350197  RH  079%=      5-min Rain = 0
KPA1 140610Z 02008KT 24/20 A3003 RMK A01 T02350197  RH  079%=      5-min Rain = 0
KPA1 140611Z 02008KT 24/20 A3003 RMK A01 T02350197  RH  079%=      5-min Rain = 0
KPA1 140612Z 02008KT 24/20 A3003 RMK A01 T02350197  RH  079%=      5-min Rain = 0
KPA1 140613Z 02008KT 24/20 A3003 RMK A01 T02350196  RH  079%=      5-min Rain = 0
KPA1 140614Z 02008KT 24/20 A3003 RMK A01 T02350196  RH  079%=      5-min Rain = 0
KPA1 140615Z 02008KT 23/20 A3003 RMK A01 T02340196  RH  079%=      5-min Rain = 0
KPA1 140616Z 02009KT 23/20 A3003 RMK A01 T02340196  RH  079%=      5-min Rain = 0
KPA1 140617Z 02008KT 24/20 A3003 RMK A01 T02350196  RH  079%=      5-min Rain = 0
KPA1 140618Z 02008KT 24/20 A3003 RMK A01 T02360196  RH  078%=      5-min Rain = 0
KPA1 140619Z 02008KT 24/20 A3003 RMK A01 T02370196  RH  078%=      5-min Rain = 0
KPA1 140620Z 02007KT 24/20 A3003 RMK A01 T02370195  RH  077%=      5-min Rain = 0
KPA1 140621Z 02006KT 24/19 A3003 RMK A01 T02350194  RH  078%=      5-min Rain = 0
KPA1 140622Z 02007KT 23/19 A3003 RMK A01 T02330194  RH  078%=      5-min Rain = 0
KPA1 140623Z 02007KT 23/20 A3003 RMK A01 T02330195  RH  079%=      5-min Rain = 0
KPA1 140624Z 02007KT 23/20 A3003 RMK A01 T02320195  RH  079%=      5-min Rain = 0
KPA1 140625Z 02008KT 23/20 A3003 RMK A01 T02320195  RH  080%=      5-min Rain = 0
KPA1 140626Z 02007KT 23/20 A3003 RMK A01 T02320195  RH  080%=      5-min Rain = 0
KPA1 140627Z 02008KT 23/20 A3003 RMK A01 T02320195  RH  080%=      5-min Rain = 0
KPA1 140628Z 02008KT 23/20 A3003 RMK A01 T02310195  RH  080%=      5-min Rain = 0
KPA1 140629Z 02009KT 23/20 A3003 RMK A01 T02310196  RH  080%=      5-min Rain = 0
KPA1 140630Z 02008KT 23/20 A3003 RMK A01 T02310196  RH  081%=      5-min Rain = 0
KPA1 140631Z 02008KT 23/20 A3003 RMK A01 T02320197  RH  081%=      5-min Rain = 0
KPA1 140632Z 02008KT 23/20 A3003 RMK A01 T02320197  RH  081%=      5-min Rain = 0
KPA1 140633Z 02009KT 23/20 A3003 RMK A01 T02320198  RH  081%=      5-min Rain = 0
KPA1 140634Z 02009KT 23/20 A3003 RMK A01 T02320199  RH  082%=      5-min Rain = 0
KPA1 140635Z 02009KT 23/20 A3003 RMK A01 T02320199  RH  082%=      5-min Rain = 0
KPA1 140636Z 02008KT 23/20 A3003 RMK A01 T02320200  RH  082%=      5-min Rain = 0
KPA1 140637Z 03008KT 23/20 A3003 RMK A01 T02320200  RH  082%=      5-min Rain = 0
KPA1 140638Z 03007KT 23/20 A3003 RMK A01 T02320200  RH  082%=      5-min Rain = 0
KPA1 140639Z 03008KT 23/20 A3003 RMK A01 T02310201  RH  083%=      5-min Rain = 0
KPA1 140640Z 03008KT 23/20 A3003 RMK A01 T02310202  RH  084%=      5-min Rain = 0
KPA1 140641Z 03007KT 23/20 A3003 RMK A01 T02300202  RH  084%=      5-min Rain = 0
KPA1 140642Z 03007KT 23/20 A3003 RMK A01 T02290202  RH  085%=      5-min Rain = 0
KPA1 140643Z 03007KT 23/20 A3002 RMK A01 T02290202  RH  084%=      5-min Rain = 0
KPA1 140644Z 03007KT 23/20 A3002 RMK A01 T02290202  RH  084%=      5-min Rain = 0
KPA1 140645Z 03006KT 23/20 A3002 RMK A01 T02290201  RH  085%=      5-min Rain = 0
KPA1 140646Z 03007KT 23/20 A3002 RMK A01 T02280202  RH  085%=      5-min Rain = 0
KPA1 140647Z 03006KT 23/20 A3002 RMK A01 T02270202  RH  085%=      5-min Rain = 0
KPA1 140648Z 03007KT 23/20 A3002 RMK A01 T02260201  RH  086%=      5-min Rain = 0
KPA1 140649Z 03007KT 23/20 A3002 RMK A01 T02260202  RH  086%=      5-min Rain = 0
KPA1 140650Z 03008KT 23/20 A3002 RMK A01 T02250202  RH  087%=      5-min Rain = 0
KPA1 140651Z 03008KT 23/20 A3002 RMK A01 T02250202  RH  087%=      5-min Rain = 0
KPA1 140652Z 02008KT 22/20 A3002 RMK A01 T02240203  RH  088%=      5-min Rain = 0
KPA1 140653Z 02007KT 22/20 A3002 RMK A01 T02240203  RH  088%=      5-min Rain = 0
KPA1 140654Z 02008KT 23/20 A3002 RMK A01 T02250203  RH  088%=      5-min Rain = 0
KPA1 140655Z 02008KT 23/20 A3002 RMK A01 T02250203  RH  087%=      5-min Rain = 0
KPA1 140656Z 02009KT 23/20 A3002 RMK A01 T02250203  RH  088%=      5-min Rain = 0
KPA1 140657Z 02009KT 23/21 A3002 RMK A01 T02250205  RH  088%=      5-min Rain = 0
KPA1 140658Z 02009KT 23/21 A3002 RMK A01 T02260205  RH  088%=      5-min Rain = 0
KPA1 140659Z 02008KT 23/21 A3002 RMK A01 T02270207  RH  089%=      5-min Rain = 0
KPA1 140700Z 02008KT 23/21 A3002 RMK A01 T02270207  RH  088%=      5-min Rain = 0
KPA1 140701Z 03008KT 23/21 A3002 RMK A01 T02270207  RH  089%=      5-min Rain = 0
KPA1 140702Z 02007KT 23/21 A3002 RMK A01 T02270207  RH  088%=      5-min Rain = 0
KPA1 140703Z 02007KT 23/21 A3002 RMK A01 T02270206  RH  088%=      5-min Rain = 0
KPA1 140704Z 02007KT 23/21 A3002 RMK A01 T02260205  RH  088%=      5-min Rain = 0
KPA1 140705Z 02007KT 23/21 A3002 RMK A01 T02250206  RH  089%=      5-min Rain = 0
KPA1 140706Z 03007KT 22/21 A3002 RMK A01 T02240206  RH  089%=      5-min Rain = 0
KPA1 140707Z 03007KT 22/21 A3001 RMK A01 T02240207  RH  090%=      5-min Rain = 0
KPA1 140708Z 03008KT 22/21 A3001 RMK A01 T02240207  RH  090%=      5-min Rain = 0
KPA1 140709Z 03008KT 22/21 A3001 RMK A01 T02230207  RH  090%=      5-min Rain = 0
KPA1 140710Z 03008KT 22/21 A3001 RMK A01 T02230207  RH  091%=      5-min Rain = 0
KPA1 140711Z 03008KT 22/21 A3001 RMK A01 T02230208  RH  091%=      5-min Rain = 0
KPA1 140712Z 03009KT 22/21 A3001 RMK A01 T02220209  RH  092%=      5-min Rain = 0
KPA1 140713Z 03009KT 22/21 A3001 RMK A01 T02220210  RH  092%=      5-min Rain = 0
KPA1 140714Z 03008KT 22/21 A3001 RMK A01 T02230210  RH  093%=      5-min Rain = 0
KPA1 140715Z 03008KT 22/21 A3001 RMK A01 T02230211  RH  093%=      5-min Rain = 0
KPA1 140716Z 03008KT 22/21 A3001 RMK A01 T02230210  RH  093%=      5-min Rain = 0
KPA1 140717Z 03008KT 22/21 A3001 RMK A01 T02230210  RH  092%=      5-min Rain = 0
KPA1 140718Z 03008KT 22/21 A3001 RMK A01 T02230210  RH  093%=      5-min Rain = 0
KPA1 140719Z 03007KT 22/21 A3001 RMK A01 T02230211  RH  093%=      5-min Rain = 0
KPA1 140720Z 03007KT 22/21 A3001 RMK A01 T02220210  RH  093%=      5-min Rain = 0
KPA1 140721Z 03007KT 22/21 A3001 RMK A01 T02220210  RH  093%=      5-min Rain = 0
KPA1 140722Z 03007KT 22/21 A3001 RMK A01 T02210210  RH  093%=      5-min Rain = 0
KPA1 140723Z 03007KT 22/21 A3001 RMK A01 T02200210  RH  094%=      5-min Rain = 0
KPA1 140724Z 03007KT 22/21 A3001 RMK A01 T02200210  RH  094%=      5-min Rain = 0
KPA1 140725Z 03006KT 22/21 A3001 RMK A01 T02200210  RH  094%=      5-min Rain = 0
KPA1 140726Z 03006KT 22/21 A3001 RMK A01 T02190210  RH  094%=      5-min Rain = 0
KPA1 140727Z 04005KT 22/21 A3001 RMK A01 T02190209  RH  095%=      5-min Rain = 0
KPA1 140728Z 03005KT 22/21 A3001 RMK A01 T02180209  RH  095%=      5-min Rain = 0
KPA1 140729Z 03004KT 22/21 A3002 RMK A01 T02170209  RH  095%=      5-min Rain = 0
KPA1 140730Z 03004KT 22/21 A3002 RMK A01 T02170209  RH  095%=      5-min Rain = 0
KPA1 140731Z 03004KT 22/21 A3002 RMK A01 T02170210  RH  096%=      5-min Rain = 0
KPA1 140732Z 04003KT 22/21 A3002 RMK A01 T02170209  RH  095%=      5-min Rain = 0
KPA1 140733Z 04003KT 22/21 A3002 RMK A01 T02170208  RH  095%=      5-min Rain = 0
KPA1 140734Z 04004KT 22/21 A3002 RMK A01 T02160208  RH  095%=      5-min Rain = 0
KPA1 140735Z 05004KT 22/21 A3002 RMK A01 T02150207  RH  095%=      5-min Rain = 0
KPA1 140736Z 05004KT 21/21 A3002 RMK A01 T02140206  RH  095%=      5-min Rain = 0
KPA1 140737Z 05004KT 21/21 A3002 RMK A01 T02120205  RH  095%=      5-min Rain = 0
KPA1 140738Z 05004KT 21/20 A3002 RMK A01 T02110204  RH  096%=      5-min Rain = 0
KPA1 140739Z 05004KT 21/20 A3002 RMK A01 T02100204  RH  096%=      5-min Rain = 0
KPA1 140740Z 04004KT 21/20 A3002 RMK A01 T02090204  RH  097%=      5-min Rain = 0
KPA1 140741Z 04004KT 21/20 A3002 RMK A01 T02090203  RH  097%=      5-min Rain = 0
KPA1 140742Z 03004KT 21/20 A3001 RMK A01 T02070202  RH  097%=      5-min Rain = 0
KPA1 140743Z 03005KT 21/20 A3001 RMK A01 T02060202  RH  097%=      5-min Rain = 0
KPA1 140744Z 02005KT 21/20 A3001 RMK A01 T02050201  RH  098%=      5-min Rain = 0
KPA1 140745Z 02006KT 20/20 A3001 RMK A01 T02040202  RH  098%=      5-min Rain = 0
KPA1 140746Z 02006KT 20/20 A3001 RMK A01 T02030201  RH  099%=      5-min Rain = 0
KPA1 140747Z 02007KT 20/20 A3001 RMK A01 T02030201  RH  099%=      5-min Rain = 0
KPA1 140748Z 01006KT 20/20 A3001 RMK A01 T02030203  RH  100%=      5-min Rain = 0
KPA1 140749Z 01006KT 21/20 A3001 RMK A01 T02050204  RH  100%=      5-min Rain = 0
KPA1 140750Z 02007KT 21/21 A3001 RMK A01 T02060206  RH  100%=      5-min Rain = 0
KPA1 140751Z 02006KT 21/21 A3001 RMK A01 T02080208  RH  100%=      5-min Rain = 0
KPA1 140752Z 02006KT 21/21 A3001 RMK A01 T02090209  RH  100%=      5-min Rain = 0
KPA1 140753Z 03005KT 21/21 A3001 RMK A01 T02110210  RH  099%=      5-min Rain = 0
KPA1 140754Z 03005KT 21/21 A3002 RMK A01 T02120210  RH  099%=      5-min Rain = 0
KPA1 140755Z 04003KT 21/21 A3002 RMK A01 T02120210  RH  099%=      5-min Rain = 0
KPA1 140756Z 05003KT 21/21 A3002 RMK A01 T02120209  RH  098%=      5-min Rain = 0
KPA1 140757Z 06003KT 21/21 A3002 RMK A01 T02120207  RH  097%=      5-min Rain = 0
KPA1 140758Z 08002KT 21/20 A3002 RMK A01 T02100204  RH  096%=      5-min Rain = 0
KPA1 140759Z 10002KT 21/20 A3002 RMK A01 T02080198  RH  094%=      5-min Rain = 0
KPA1 140800Z 13003KT 20/19 A3002 RMK A01 T02030192  RH  093%=      5-min Rain = 0
KPA1 140801Z 15004KT 20/19 A3002 RMK A01 T01990188  RH  093%=      5-min Rain = 0
KPA1 140802Z 16006KT 20/19 A3002 RMK A01 T01960188  RH  095%=      5-min Rain = 0
KPA1 140803Z 16006KT 19/19 A3002 RMK A01 T01940187  RH  096%=      5-min Rain = 0
KPA1 140804Z 15005KT 19/19 A3002 RMK A01 T01920186  RH  097%=      5-min Rain = 0
KPA1 140805Z 15004KT 19/19 A3002 RMK A01 T01900187  RH  098%=      5-min Rain = 0
KPA1 140806Z 15004KT 19/19 A3002 RMK A01 T01890187  RH  098%=      5-min Rain = 0
KPA1 140807Z 15004KT 19/19 A3002 RMK A01 T01880187  RH  099%=      5-min Rain = 0
KPA1 140808Z 15004KT 19/19 A3002 RMK A01 T01880187  RH  100%=      5-min Rain = 0
KPA1 140809Z 15004KT 19/19 A3002 RMK A01 T01880188  RH  100%=      5-min Rain = 0
KPA1 140810Z 15004KT 19/19 A3002 RMK A01 T01870187  RH  100%=      5-min Rain = 0
KPA1 140811Z 15003KT 19/19 A3002 RMK A01 T01870187  RH  100%=      5-min Rain = 0
KPA1 140812Z 15002KT 19/19 A3002 RMK A01 T01860186  RH  100%=      5-min Rain = 0
KPA1 140813Z 15002KT 19/19 A3002 RMK A01 T01860186  RH  100%=      5-min Rain = 0
KPA1 140814Z 14002KT 19/19 A3002 RMK A01 T01860186  RH  100%=      5-min Rain = 0
KPA1 140815Z 15003KT 19/19 A3002 RMK A01 T01860187  RH  100%=      5-min Rain = 0
KPA1 140816Z 16004KT 19/19 A3002 RMK A01 T01860187  RH  100%=      5-min Rain = 0
KPA1 140817Z 17006KT 19/19 A3002 RMK A01 T01850186  RH  100%=      5-min Rain = 0
KPA1 140818Z 17007KT 18/18 A3002 RMK A01 T01830183  RH  100%=      5-min Rain = 0
KPA1 140819Z 18008KT 18/18 A3002 RMK A01 T01810181  RH  100%=      5-min Rain = 0
KPA1 140820Z 18007KT 18/18 A3003 RMK A01 T01810181  RH  100%=      5-min Rain = 0
KPA1 140821Z 19007KT 18/18 A3003 RMK A01 T01810181  RH  100%=      5-min Rain = 0
KPA1 140822Z 19006KT 18/18 A3003 RMK A01 T01810181  RH  100%=      5-min Rain = 0
KPA1 140823Z 20004KT 18/18 A3002 RMK A01 T01810181  RH  100%=      5-min Rain = 0
KPA1 140824Z 20003KT 18/18 A3002 RMK A01 T01810181  RH  100%=      5-min Rain = 0
KPA1 140825Z 20003KT 18/18 A3002 RMK A01 T01810181  RH  100%=      5-min Rain = 0
KPA1 140826Z 19003KT 18/18 A3002 RMK A01 T01810181  RH  100%=      5-min Rain = 0
KPA1 140827Z 19004KT 18/18 A3002 RMK A01 T01810181  RH  100%=      5-min Rain = 0
KPA1 140828Z 19004KT 18/18 A3002 RMK A01 T01810181  RH  100%=      5-min Rain = 0
KPA1 140829Z 19004KT 18/18 A3002 RMK A01 T01810181  RH  100%=      5-min Rain = 0
KPA1 140830Z 19004KT 18/18 A3002 RMK A01 T01810181  RH  100%=      5-min Rain = 0
KPA1 140831Z 20002KT 18/18 A3002 RMK A01 T01820182  RH  100%=      5-min Rain = 0
KPA1 140832Z 20001KT 18/18 A3002 RMK A01 T01830183  RH  100%=      5-min Rain = 0
KPA1 140833Z 20000KT 18/18 A3002 RMK A01 T01840184  RH  100%=      5-min Rain = 0
KPA1 140834Z 00000KT 18/18 A3002 RMK A01 T01830183  RH  100%=      5-min Rain = 0
KPA1 140835Z 00000KT 18/18 A3002 RMK A01 T01810181  RH  100%=      5-min Rain = 0
KPA1 140836Z 00000KT 18/18 A3002 RMK A01 T01800180  RH  100%=      5-min Rain = 0
KPA1 140837Z 20001KT 18/18 A3002 RMK A01 T01800180  RH  100%=      5-min Rain = 0
KPA1 140838Z 20003KT 18/18 A3002 RMK A01 T01820183  RH  100%=      5-min Rain = 0
KPA1 140839Z 20003KT 18/18 A3002 RMK A01 T01830184  RH  100%=      5-min Rain = 0
KPA1 140840Z 21003KT 18/18 A3002 RMK A01 T01830183  RH  100%=      5-min Rain = 0
KPA1 140841Z 22002KT 18/18 A3002 RMK A01 T01820182  RH  100%=      5-min Rain = 0
KPA1 140842Z 23001KT 18/18 A3002 RMK A01 T01810181  RH  100%=      5-min Rain = 0
KPA1 140843Z 00000KT 18/18 A3002 RMK A01 T01800180  RH  100%=      5-min Rain = 0
KPA1 140844Z 32000KT 18/18 A3002 RMK A01 T01800181  RH  100%=      5-min Rain = 0
KPA1 140845Z 35001KT 18/18 A3001 RMK A01 T01820182  RH  100%=      5-min Rain = 0
KPA1 140846Z 35001KT 18/18 A3001 RMK A01 T01830183  RH  100%=      5-min Rain = 0
KPA1 140847Z 36001KT 18/18 A3001 RMK A01 T01810181  RH  100%=      5-min Rain = 0
KPA1 140848Z 00000KT 18/18 A3001 RMK A01 T01820182  RH  100%=      5-min Rain = 0
KPA1 140849Z 00000KT 18/18 A3001 RMK A01 T01810181  RH  100%=      5-min Rain = 0
KPA1 140850Z 00000KT 18/18 A3001 RMK A01 T01790180  RH  100%=      5-min Rain = 0
KPA1 140851Z 00000KT 18/18 A3001 RMK A01 T01790179  RH  100%=      5-min Rain = 0
KPA1 140852Z 27000KT 18/18 A3001 RMK A01 T01790179  RH  100%=      5-min Rain = 0
KPA1 140853Z 00000KT 18/18 A3001 RMK A01 T01790179  RH  100%=      5-min Rain = 0
KPA1 140854Z 00000KT 18/18 A3001 RMK A01 T01790179  RH  100%=      5-min Rain = 0
KPA1 140855Z 00000KT 18/18 A3001 RMK A01 T01790179  RH  100%=      5-min Rain = 0
KPA1 140856Z 00000KT 18/18 A3001 RMK A01 T01790179  RH  100%=      5-min Rain = 0
KPA1 140857Z 31000KT 18/18 A3001 RMK A01 T01790179  RH  100%=      5-min Rain = 0
KPA1 140858Z 33001KT 18/18 A3001 RMK A01 T01790179  RH  100%=      5-min Rain = 0
KPA1 140859Z 35003KT 18/18 A3001 RMK A01 T01790179  RH  100%=      5-min Rain = 0
KPA1 140900Z 36006KT 18/18 A3001 RMK A01 T01770177  RH  100%=      5-min Rain = 0
KPA1 140901Z 00006KT 18/18 A3001 RMK A01 T01750175  RH  100%=      5-min Rain = 0
KPA1 140902Z 01005KT 18/18 A3001 RMK A01 T01790179  RH  100%=      5-min Rain = 0
KPA1 140903Z 01005KT 18/18 A3001 RMK A01 T01810181  RH  100%=      5-min Rain = 0
KPA1 140904Z 01005KT 18/18 A3001 RMK A01 T01830183  RH  100%=      5-min Rain = 0
KPA1 140905Z 01005KT 19/19 A3001 RMK A01 T01860186  RH  100%=      5-min Rain = 0
KPA1 140906Z 01005KT 19/19 A3001 RMK A01 T01890190  RH  100%=      5-min Rain = 0
KPA1 140907Z 01006KT 19/19 A3001 RMK A01 T01910191  RH  100%=      5-min Rain = 0
KPA1 140908Z 01006KT 19/19 A3001 RMK A01 T01910191  RH  100%=      5-min Rain = 0
KPA1 140909Z 01006KT 19/19 A3001 RMK A01 T01910191  RH  100%=      5-min Rain = 0
KPA1 140910Z 01006KT 19/19 A3001 RMK A01 T01920192  RH  100%=      5-min Rain = 0
KPA1 140911Z 02007KT 19/19 A30 RMK A01 T01930193  RH  100%=      5-min Rain = 0
KPA1 140912Z 02008KT 19/19 A30 RMK A01 T01940194  RH  100%=      5-min Rain = 0
KPA1 140913Z 01008KT 20/20 A30 RMK A01 T01960196  RH  100%=      5-min Rain = 0
KPA1 140914Z 01007KT 20/20 A30 RMK A01 T01990199  RH  100%=      5-min Rain = 0
KPA1 140915Z 01008KT 20/20 A30 RMK A01 T02000201  RH  100%=      5-min Rain = 0
KPA1 140916Z 01008KT 20/20 A30 RMK A01 T02030203  RH  100%=      5-min Rain = 0
KPA1 140917Z 01008KT 21/21 A30 RMK A01 T02050205  RH  100%=      5-min Rain = 0
KPA1 140918Z 01009KT 21/21 A30 RMK A01 T02060206  RH  100%=      5-min Rain = 0
KPA1 140919Z 01009KT 21/21 A30 RMK A01 T02080208  RH  100%=      5-min Rain = 0
KPA1 140920Z 01009KT 21/21 A30 RMK A01 T02080208  RH  100%=      5-min Rain = 0
KPA1 140921Z 01009KT 21/21 A30 RMK A01 T02080209  RH  100%=      5-min Rain = 0
KPA1 140922Z 01009KT 21/21 A30 RMK A01 T02090209  RH  100%=      5-min Rain = 0
KPA1 140923Z 01009KT 21/21 A30 RMK A01 T02090209  RH  100%=      5-min Rain = 0
KPA1 140924Z 01009KT 21/21 A30 RMK A01 T02090209  RH  100%=      5-min Rain = 0
KPA1 140925Z 00008KT 21/21 A30 RMK A01 T02090209  RH  100%=      5-min Rain = 0
KPA1 140926Z 00007KT 21/21 A30 RMK A01 T02090209  RH  100%=      5-min Rain = 0
KPA1 140927Z 00007KT 21/21 A30 RMK A01 T02090209  RH  100%=      5-min Rain = 0
KPA1 140928Z 01008KT 21/21 A30 RMK A01 T02090209  RH  100%=      5-min Rain = 0
KPA1 140929Z 01009KT 21/21 A30 RMK A01 T02090209  RH  100%=      5-min Rain = 0
KPA1 140930Z 01008KT 21/21 A30 RMK A01 T02090209  RH  100%=      5-min Rain = 0
KPA1 140931Z 01007KT 21/21 A30 RMK A01 T02100210  RH  100%=      5-min Rain = 0
KPA1 140932Z 01005KT 21/21 A30 RMK A01 T02100210  RH  100%=      5-min Rain = 0
KPA1 140933Z 01004KT 21/21 A30 RMK A01 T02100210  RH  100%=      5-min Rain = 0
KPA1 140934Z 00003KT 21/21 A30 RMK A01 T02090210  RH  100%=      5-min Rain = 0
KPA1 140935Z 00002KT 21/21 A30 RMK A01 T02100210  RH  100%=      5-min Rain = 0
KPA1 140936Z 00001KT 21/21 A30 RMK A01 T02100210  RH  100%=      5-min Rain = 0
KPA1 140937Z 01000KT 21/21 A30 RMK A01 T02100210  RH  100%=      5-min Rain = 0
KPA1 140938Z 01000KT 21/21 A30 RMK A01 T02100210  RH  100%=      5-min Rain = 0
KPA1 140939Z 36000KT 21/21 A30 RMK A01 T02100210  RH  100%=      5-min Rain = 0
KPA1 140940Z 36000KT 21/21 A30 RMK A01 T02090209  RH  100%=      5-min Rain = 0
KPA1 140941Z 00000KT 21/21 A30 RMK A01 T02090209  RH  100%=      5-min Rain = 0
KPA1 140942Z 18000KT 21/21 A30 RMK A01 T02090209  RH  100%=      5-min Rain = 0
KPA1 140943Z 18002KT 21/21 A30 RMK A01 T02090208  RH  100%=      5-min Rain = 0
KPA1 140944Z 18004KT 21/20 A30 RMK A01 T02050201  RH  098%=      5-min Rain = 0
KPA1 140945Z 19005KT 20/20 A30 RMK A01 T02010198  RH  098%=      5-min Rain = 0
KPA1 140946Z 19004KT 20/19 A30 RMK A01 T01980194  RH  097%=      5-min Rain = 0
KPA1 140947Z 19002KT 19/19 A30 RMK A01 T01940190  RH  097%=      5-min Rain = 0
KPA1 140948Z 18001KT 19/19 A30 RMK A01 T01920188  RH  098%=      5-min Rain = 0
KPA1 140949Z 13000KT 19/19 A30 RMK A01 T01910188  RH  099%=      5-min Rain = 0
KPA1 140950Z 06001KT 19/19 A30 RMK A01 T01900188  RH  099%=      5-min Rain = 0
KPA1 140951Z 04002KT 19/19 A30 RMK A01 T01890189  RH  100%=      5-min Rain = 0
KPA1 140952Z 04002KT 19/19 A30 RMK A01 T01890189  RH  100%=      5-min Rain = 0
KPA1 140953Z 02001KT 19/19 A30 RMK A01 T01880189  RH  100%=      5-min Rain = 0
KPA1 140954Z 03000KT 19/19 A30 RMK A01 T01880188  RH  100%=      5-min Rain = 0
KPA1 140955Z 17000KT 19/19 A30 RMK A01 T01880188  RH  100%=      5-min Rain = 0
KPA1 140956Z 19002KT 19/19 A30 RMK A01 T01870187  RH  100%=      5-min Rain = 0
KPA1 140957Z 20001KT 19/19 A30 RMK A01 T01870187  RH  100%=      5-min Rain = 0
KPA1 140958Z 00000KT 19/19 A30 RMK A01 T01860186  RH  100%=      5-min Rain = 0
KPA1 140959Z 00000KT 19/19 A30 RMK A01 T01860186  RH  100%=      5-min Rain = 0
KPA1 141000Z 12000KT 19/19 A30 RMK A01 T01860186  RH  100%=      5-min Rain = 0
KPA1 141001Z 04001KT 19/19 A30 RMK A01 T01850185  RH  100%=      5-min Rain = 0
KPA1 141002Z 04001KT 18/18 A30 RMK A01 T01840184  RH  100%=      5-min Rain = 0
KPA1 141003Z 03001KT 18/18 A30 RMK A01 T01830184  RH  100%=      5-min Rain = 0
KPA1 141004Z 04000KT 18/18 A30 RMK A01 T01830183  RH  100%=      5-min Rain = 0
KPA1 141005Z 00000KT 18/18 A30 RMK A01 T01840184  RH  100%=      5-min Rain = 0
KPA1 141006Z 00000KT 19/19 A30 RMK A01 T01850185  RH  100%=      5-min Rain = 0
KPA1 141007Z 18001KT 19/19 A30 RMK A01 T01850185  RH  100%=      5-min Rain = 0
KPA1 141008Z 18001KT 19/19 A30 RMK A01 T01850185  RH  100%=      5-min Rain = 0
KPA1 141009Z 18000KT 19/19 A30 RMK A01 T01850185  RH  100%=      5-min Rain = 0
KPA1 141010Z 00000KT 19/19 A30 RMK A01 T01850185  RH  100%=      5-min Rain = 0
KPA1 141011Z 06001KT 19/19 A30 RMK A01 T01860186  RH  100%=      5-min Rain = 0
KPA1 141012Z 06001KT 19/19 A30 RMK A01 T01860186  RH  100%=      5-min Rain = 0
KPA1 141013Z 05001KT 19/19 A30 RMK A01 T01860187  RH  100%=      5-min Rain = 0
KPA1 141014Z 05000KT 19/19 A30 RMK A01 T01870187  RH  100%=      5-min Rain = 0
KPA1 141015Z 00000KT 19/19 A30 RMK A01 T01870188  RH  100%=      5-min Rain = 0
KPA1 141016Z 00000KT 19/19 A30 RMK A01 T01860187  RH  100%=      5-min Rain = 0
KPA1 141017Z 00000KT 19/19 A30 RMK A01 T01850185  RH  100%=      5-min Rain = 0
KPA1 141018Z 00000KT 19/19 A30 RMK A01 T01860186  RH  100%=      5-min Rain = 0
KPA1 141019Z 03000KT 18/18 A30 RMK A01 T01840184  RH  100%=      5-min Rain = 0
KPA1 141020Z 02001KT 18/18 A30 RMK A01 T01810181  RH  100%=      5-min Rain = 0
KPA1 141021Z 02001KT 18/18 A30 RMK A01 T01810181  RH  100%=      5-min Rain = 0
KPA1 141022Z 00000KT 18/18 A30 RMK A01 T01810181  RH  100%=      5-min Rain = 0
KPA1 141023Z 00000KT 18/18 A30 RMK A01 T01810181  RH  100%=      5-min Rain = 0
KPA1 141024Z 00000KT 18/18 A30 RMK A01 T01810181  RH  100%=      5-min Rain = 0
KPA1 141025Z 00000KT 18/18 A30 RMK A01 T01800180  RH  100%=      5-min Rain = 0
KPA1 141026Z 20000KT 18/18 A30 RMK A01 T01790179  RH  100%=      5-min Rain = 0
KPA1 141027Z 00000KT 18/18 A30 RMK A01 T01790179  RH  100%=      5-min Rain = 0
KPA1 141028Z 00000KT 18/18 A30 RMK A01 T01770177  RH  100%=      5-min Rain = 0
KPA1 141029Z 00000KT 18/18 A30 RMK A01 T01770177  RH  100%=      5-min Rain = 0
KPA1 141030Z 00000KT 18/18 A30 RMK A01 T01770177  RH  100%=      5-min Rain = 0
KPA1 141031Z 00000KT 18/18 A30 RMK A01 T01780178  RH  100%=      5-min Rain = 0
KPA1 141032Z 00000KT 18/18 A30 RMK A01 T01780178  RH  100%=      5-min Rain = 0
KPA1 141033Z 00000KT 18/18 A30 RMK A01 T01790179  RH  100%=      5-min Rain = 0
KPA1 141034Z 21000KT 18/18 A30 RMK A01 T01780178  RH  100%=      5-min Rain = 0
KPA1 141035Z 20001KT 18/18 A30 RMK A01 T01770177  RH  100%=      5-min Rain = 0
KPA1 141036Z 20001KT 18/18 A30 RMK A01 T01760177  RH  100%=      5-min Rain = 0
KPA1 141037Z 20000KT 18/18 A30 RMK A01 T01770177  RH  100%=      5-min Rain = 0
KPA1 141038Z 00000KT 18/18 A30 RMK A01 T01770177  RH  100%=      5-min Rain = 0
KPA1 141039Z 00000KT 18/18 A30 RMK A01 T01770177  RH  100%=      5-min Rain = 0
KPA1 141040Z 00000KT 18/18 A30 RMK A01 T01780178  RH  100%=      5-min Rain = 0
KPA1 141041Z 00000KT 18/18 A30 RMK A01 T01780178  RH  100%=      5-min Rain = 0
KPA1 141042Z 22000KT 18/18 A30 RMK A01 T01790179  RH  100%=      5-min Rain = 0
KPA1 141043Z 22002KT 18/18 A30 RMK A01 T01780178  RH  100%=      5-min Rain = 0
KPA1 141044Z 22002KT 18/18 A30 RMK A01 T01750176  RH  100%=      5-min Rain = 0
KPA1 141045Z 22001KT 17/17 A30 RMK A01 T01730173  RH  100%=      5-min Rain = 0
KPA1 141046Z 00000KT 17/17 A30 RMK A01 T01710171  RH  100%=      5-min Rain = 0
KPA1 141047Z 00000KT 17/17 A30 RMK A01 T01690170  RH  100%=      5-min Rain = 0
KPA1 141048Z 00000KT 17/17 A30 RMK A01 T01690169  RH  100%=      5-min Rain = 0
KPA1 141049Z 00000KT 17/17 A30 RMK A01 T01680168  RH  100%=      5-min Rain = 0
KPA1 141050Z 22000KT 17/17 A30 RMK A01 T01680168  RH  100%=      5-min Rain = 0
KPA1 141051Z 22001KT 17/17 A30 RMK A01 T01680168  RH  100%=      5-min Rain = 0
KPA1 141052Z 22001KT 17/17 A30 RMK A01 T01680168  RH  100%=      5-min Rain = 0
KPA1 141053Z 22000KT 17/17 A30 RMK A01 T01680168  RH  100%=      5-min Rain = 0
KPA1 141054Z 00000KT 17/17 A30 RMK A01 T01680168  RH  100%=      5-min Rain = 0
KPA1 141055Z 00000KT 17/17 A30 RMK A01 T01680169  RH  100%=      5-min Rain = 0
KPA1 141056Z 00000KT 17/17 A30 RMK A01 T01690169  RH  100%=      5-min Rain = 0
KPA1 141057Z 00000KT 17/17 A30 RMK A01 T01690169  RH  100%=      5-min Rain = 0
KPA1 141058Z 24001KT 17/17 A30 RMK A01 T01690170  RH  100%=      5-min Rain = 0
KPA1 141059Z 26001KT 17/17 A30 RMK A01 T01700170  RH  100%=      5-min Rain = 0
KPA1 141100Z 27001KT 17/17 A30 RMK A01 T01700170  RH  100%=      5-min Rain = 0
KPA1 141101Z 28001KT 17/17 A30 RMK A01 T01700170  RH  100%=      5-min Rain = 0
KPA1 141102Z 00000KT 17/17 A30 RMK A01 T01700170  RH  100%=      5-min Rain = 0
KPA1 141103Z 24001KT 17/17 A30 RMK A01 T01690169  RH  100%=      5-min Rain = 0
KPA1 141104Z 27001KT 17/17 A30 RMK A01 T01690169  RH  100%=      5-min Rain = 0
KPA1 141105Z 30001KT 17/17 A30 RMK A01 T01690169  RH  100%=      5-min Rain = 0
KPA1 141106Z 29001KT 17/17 A30 RMK A01 T01690169  RH  100%=      5-min Rain = 0
KPA1 141107Z 32001KT 17/17 A30 RMK A01 T01690169  RH  100%=      5-min Rain = 0
KPA1 141108Z 34001KT 17/17 A30 RMK A01 T01690169  RH  100%=      5-min Rain = 0
KPA1 141109Z 31001KT 17/17 A30 RMK A01 T01690169  RH  100%=      5-min Rain = 0
KPA1 141110Z 35002KT 17/17 A30 RMK A01 T01690169  RH  100%=      5-min Rain = 0
KPA1 141111Z 36002KT 17/17 A30 RMK A01 T01680169  RH  100%=      5-min Rain = 0
KPA1 141112Z 34000KT 17/17 A30 RMK A01 T01670167  RH  100%=      5-min Rain = 0
KPA1 141113Z 00002KT 17/17 A30 RMK A01 T01660166  RH  100%=      5-min Rain = 0
KPA1 141114Z 00003KT 17/17 A30 RMK A01 T01650165  RH  100%=      5-min Rain = 0
KPA1 141115Z 00004KT 17/17 A30 RMK A01 T01660166  RH  100%=      5-min Rain = 0
KPA1 141116Z 00003KT 17/17 A30 RMK A01 T01670167  RH  100%=      5-min Rain = 0
KPA1 141117Z 00003KT 17/17 A30 RMK A01 T01710171  RH  100%=      5-min Rain = 0
KPA1 141118Z 00003KT 17/17 A30 RMK A01 T01730173  RH  100%=      5-min Rain = 0
KPA1 141119Z 01004KT 17/18 A30 RMK A01 T01740175  RH  100%=      5-min Rain = 0
KPA1 141120Z 01003KT 18/18 A30 RMK A01 T01760176  RH  100%=      5-min Rain = 0
KPA1 141121Z 36003KT 17/17 A30 RMK A01 T01740174  RH  100%=      5-min Rain = 0
KPA1 141122Z 35003KT 17/17 A30 RMK A01 T01720172  RH  100%=      5-min Rain = 0
KPA1 141123Z 34003KT 17/17 A3001 RMK A01 T01730173  RH  100%=      5-min Rain = 0
KPA1 141124Z 34003KT 17/17 A3001 RMK A01 T01730173  RH  100%=      5-min Rain = 0
KPA1 141125Z 34004KT 18/18 A3001 RMK A01 T01770177  RH  100%=      5-min Rain = 0
KPA1 141126Z 35004KT 18/18 A3001 RMK A01 T01820182  RH  100%=      5-min Rain = 0
KPA1 141127Z 35004KT 18/18 A3001 RMK A01 T01830183  RH  100%=      5-min Rain = 0
KPA1 141128Z 35003KT 18/18 A30 RMK A01 T01820182  RH  100%=      5-min Rain = 0
KPA1 141129Z 35003KT 18/18 A30 RMK A01 T01820182  RH  100%=      5-min Rain = 0
KPA1 141130Z 35003KT 18/18 A3001 RMK A01 T01820182  RH  100%=      5-min Rain = 0
KPA1 141131Z 35003KT 18/18 A3001 RMK A01 T01800180  RH  100%=      5-min Rain = 0
KPA1 141132Z 35003KT 18/18 A3001 RMK A01 T01790180  RH  100%=      5-min Rain = 0
KPA1 141133Z 35003KT 18/18 A3001 RMK A01 T01810182  RH  100%=      5-min Rain = 0
KPA1 141134Z 35002KT 19/19 A3001 RMK A01 T01850185  RH  100%=      5-min Rain = 0
KPA1 141135Z 33001KT 19/19 A3001 RMK A01 T01860186  RH  100%=      5-min Rain = 0
KPA1 141136Z 30001KT 19/19 A3001 RMK A01 T01860186  RH  100%=      5-min Rain = 0
KPA1 141137Z 29001KT 18/18 A3001 RMK A01 T01790179  RH  100%=      5-min Rain = 0
KPA1 141138Z 29000KT 17/17 A3001 RMK A01 T01720172  RH  100%=      5-min Rain = 0
KPA1 141139Z 29000KT 17/17 A3001 RMK A01 T01690170  RH  100%=      5-min Rain = 0
KPA1 141140Z 28001KT 17/17 A3001 RMK A01 T01670167  RH  100%=      5-min Rain = 0
KPA1 141141Z 27002KT 17/17 A3001 RMK A01 T01650165  RH  100%=      5-min Rain = 0
KPA1 141142Z 28002KT 16/16 A3001 RMK A01 T01630163  RH  100%=      5-min Rain = 0
KPA1 141143Z 29002KT 16/16 A3001 RMK A01 T01610161  RH  100%=      5-min Rain = 0
KPA1 141144Z 28002KT 16/16 A3001 RMK A01 T01600160  RH  100%=      5-min Rain = 0
KPA1 141145Z 25003KT 16/16 A3001 RMK A01 T01590159  RH  100%=      5-min Rain = 0
KPA1 141146Z 26003KT 16/16 A3001 RMK A01 T01590160  RH  100%=      5-min Rain = 0
KPA1 141147Z 28003KT 16/16 A3001 RMK A01 T01640164  RH  100%=      5-min Rain = 0
KPA1 141148Z 28004KT 17/17 A3001 RMK A01 T01680168  RH  100%=      5-min Rain = 0
KPA1 141149Z 28004KT 17/17 A3001 RMK A01 T01700171  RH  100%=      5-min Rain = 0
KPA1 141150Z 27003KT 17/17 A3001 RMK A01 T01710172  RH  100%=      5-min Rain = 0
KPA1 141151Z 27003KT 17/17 A3001 RMK A01 T01720172  RH  100%=      5-min Rain = 0
KPA1 141152Z 27003KT 17/17 A3001 RMK A01 T01730173  RH  100%=      5-min Rain = 0
KPA1 141153Z 27004KT 17/17 A3001 RMK A01 T01730174  RH  100%=      5-min Rain = 0
KPA1 141154Z 28005KT 17/17 A3002 RMK A01 T01740174  RH  100%=      5-min Rain = 0
KPA1 141155Z 28005KT 18/18 A3002 RMK A01 T01750175  RH  100%=      5-min Rain = 0
KPA1 141156Z 28005KT 18/18 A3002 RMK A01 T01750176  RH  100%=      5-min Rain = 0
KPA1 141157Z 28005KT 18/18 A3002 RMK A01 T01760176  RH  100%=      5-min Rain = 0
KPA1 141158Z 28006KT 18/18 A3002 RMK A01 T01760177  RH  100%=      5-min Rain = 0
KPA1 141159Z 29007KT 18/18 A3002 RMK A01 T01770177  RH  100%=      5-min Rain = 0
KPA1 141200Z 28007KT 18/18 A3002 RMK A01 T01770177  RH  100%=      5-min Rain = 0
KPA1 141201Z 28008KT 18/18 A3002 RMK A01 T01770177  RH  100%=      5-min Rain = 0
KPA1 141202Z 27009KT 18/18 A3003 RMK A01 T01780178  RH  100%=      5-min Rain = 0
KPA1 141203Z 28010KT 18/18 A3003 RMK A01 T01790179  RH  100%=      5-min Rain = 0
KPA1 141204Z 28011KT 18/18 A3003 RMK A01 T01800180  RH  100%=      5-min Rain = 0
KPA1 141205Z 27011KT 18/18 A3003 RMK A01 T01810181  RH  100%=      5-min Rain = 0
KPA1 141206Z 27011KT 18/18 A3003 RMK A01 T01820182  RH  100%=      5-min Rain = 0
KPA1 141207Z 27012KT 18/18 A3003 RMK A01 T01830183  RH  100%=      5-min Rain = 0
KPA1 141208Z 27013KT 19/19 A3003 RMK A01 T01850185  RH  100%=      5-min Rain = 0
KPA1 141209Z 27013KT 19/19 A3004 RMK A01 T01860187  RH  100%=      5-min Rain = 0
KPA1 141210Z 27012KT 19/19 A3004 RMK A01 T01870187  RH  100%=      5-min Rain = 0
KPA1 141211Z 27011KT 19/19 A3004 RMK A01 T01870187  RH  100%=      5-min Rain = 0
KPA1 141212Z 27011KT 19/19 A3004 RMK A01 T01880188  RH  100%=      5-min Rain = 0
KPA1 141213Z 27011KT 19/19 A3003 RMK A01 T01890189  RH  100%=      5-min Rain = 0
KPA1 141214Z 28010KT 19/19 A3003 RMK A01 T01910191  RH  100%=      5-min Rain = 0
KPA1 141215Z 28010KT 19/19 A3003 RMK A01 T01920192  RH  100%=      5-min Rain = 0
KPA1 141216Z 28010KT 19/19 A3003 RMK A01 T01930193  RH  100%=      5-min Rain = 0
KPA1 141217Z 28010KT 19/19 A3003 RMK A01 T01940194  RH  100%=      5-min Rain = 0
KPA1 141218Z 28009KT 20/20 A3003 RMK A01 T01950195  RH  100%=      5-min Rain = 0
KPA1 141219Z 28009KT 20/20 A3003 RMK A01 T01960196  RH  100%=      5-min Rain = 0
KPA1 141220Z 28009KT 20/20 A3003 RMK A01 T01960196  RH  100%=      5-min Rain = 0
KPA1 141221Z 29008KT 20/20 A3004 RMK A01 T01960197  RH  100%=      5-min Rain = 0
KPA1 141222Z 29008KT 20/20 A3004 RMK A01 T01970197  RH  100%=      5-min Rain = 0
KPA1 141223Z 30008KT 20/20 A3004 RMK A01 T01970198  RH  100%=      5-min Rain = 0
KPA1 141224Z 30007KT 20/20 A3004 RMK A01 T01980198  RH  100%=      5-min Rain = 0
KPA1 141225Z 29007KT 20/20 A3004 RMK A01 T01980198  RH  100%=      5-min Rain = 0
KPA1 141226Z 29006KT 20/20 A3004 RMK A01 T01980198  RH  100%=      5-min Rain = 0
KPA1 141227Z 29008KT 20/20 A3004 RMK A01 T01980198  RH  100%=      5-min Rain = 0
KPA1 141228Z 29008KT 20/20 A3004 RMK A01 T01980198  RH  100%=      5-min Rain = 0
KPA1 141229Z 28007KT 20/20 A3004 RMK A01 T01980198  RH  100%=      5-min Rain = 0
KPA1 141230Z 28007KT 20/20 A3004 RMK A01 T01980198  RH  100%=      5-min Rain = 0
KPA1 141231Z 28007KT 20/20 A3004 RMK A01 T01980198  RH  100%=      5-min Rain = 0
KPA1 141232Z 28006KT 20/20 A3004 RMK A01 T01980198  RH  100%=      5-min Rain = 0
KPA1 141233Z 28007KT 20/20 A3004 RMK A01 T01980198  RH  100%=      5-min Rain = 0
KPA1 141234Z 28006KT 20/20 A3004 RMK A01 T01980198  RH  100%=      5-min Rain = 0
KPA1 141235Z 29006KT 20/20 A3004 RMK A01 T01980198  RH  100%=      5-min Rain = 0
KPA1 141236Z 29007KT 20/20 A3004 RMK A01 T01980199  RH  100%=      5-min Rain = 0
KPA1 141237Z 30006KT 20/20 A3004 RMK A01 T01980199  RH  100%=      5-min Rain = 0
KPA1 141238Z 31005KT 20/20 A3004 RMK A01 T01980198  RH  100%=      5-min Rain = 0
KPA1 141239Z 32004KT 20/20 A3004 RMK A01 T01980198  RH  100%=      5-min Rain = 0
KPA1 141240Z 32005KT 20/20 A3003 RMK A01 T01990199  RH  100%=      5-min Rain = 0
KPA1 141241Z 32004KT 20/20 A3003 RMK A01 T01990199  RH  100%=      5-min Rain = 0
KPA1 141242Z 32005KT 20/20 A3003 RMK A01 T01990199  RH  100%=      5-min Rain = 0
KPA1 141243Z 33004KT 20/20 A3003 RMK A01 T01990199  RH  100%=      5-min Rain = 0
KPA1 141244Z 33005KT 20/20 A3003 RMK A01 T01990199  RH  100%=      5-min Rain = 0
KPA1 141245Z 32004KT 20/20 A3004 RMK A01 T01990199  RH  100%=      5-min Rain = 0
KPA1 141246Z 32005KT 20/20 A3004 RMK A01 T01990200  RH  100%=      5-min Rain = 0
KPA1 141247Z 31005KT 20/20 A3004 RMK A01 T01990199  RH  100%=      5-min Rain = 0
KPA1 141248Z 30005KT 20/20 A3004 RMK A01 T01990200  RH  100%=      5-min Rain = 0
KPA1 141249Z 30006KT 20/20 A3004 RMK A01 T01990199  RH  100%=      5-min Rain = 0
KPA1 141250Z 29005KT 20/20 A3004 RMK A01 T01990199  RH  100%=      5-min Rain = 0
KPA1 141251Z 29005KT 20/20 A3004 RMK A01 T01990199  RH  100%=      5-min Rain = 0
KPA1 141252Z 29006KT 20/20 A3004 RMK A01 T01990199  RH  100%=      5-min Rain = 0
KPA1 141253Z 30005KT 20/20 A3004 RMK A01 T01990199  RH  100%=      5-min Rain = 0
KPA1 141254Z 31005KT 20/20 A3004 RMK A01 T01990199  RH  100%=      5-min Rain = 0
KPA1 141255Z 33004KT 20/20 A3004 RMK A01 T01990199  RH  100%=      5-min Rain = 0
KPA1 141256Z 34004KT 20/20 A3004 RMK A01 T01990199  RH  100%=      5-min Rain = 0
KPA1 141257Z 34003KT 20/20 A3004 RMK A01 T01990199  RH  100%=      5-min Rain = 0
KPA1 141258Z 33004KT 20/20 A3004 RMK A01 T01990199  RH  100%=      5-min Rain = 0
KPA1 141259Z 32003KT 20/20 A3004 RMK A01 T01990199  RH  100%=      5-min Rain = 0
KPA1 141300Z 29002KT 20/20 A3004 RMK A01 T01990199  RH  100%=      5-min Rain = 0
KPA1 141301Z 27003KT 20/20 A3004 RMK A01 T01990199  RH  100%=      5-min Rain = 0
KPA1 141302Z 25003KT 20/20 A3004 RMK A01 T02000200  RH  100%=      5-min Rain = 0
KPA1 141303Z 25003KT 20/20 A3004 RMK A01 T02000200  RH  100%=      5-min Rain = 0
KPA1 141304Z 24003KT 20/20 A3004 RMK A01 T02000201  RH  100%=      5-min Rain = 0
KPA1 141305Z 25002KT 20/20 A3004 RMK A01 T02000201  RH  100%=      5-min Rain = 0
KPA1 141306Z 25002KT 20/20 A3004 RMK A01 T02010201  RH  100%=      5-min Rain = 0
KPA1 141307Z 25002KT 20/20 A3004 RMK A01 T02010201  RH  100%=      5-min Rain = 0
KPA1 141308Z 26002KT 20/20 A3004 RMK A01 T02010201  RH  100%=      5-min Rain = 0
KPA1 141309Z 26001KT 20/20 A3003 RMK A01 T02020202  RH  100%=      5-min Rain = 0
KPA1 141310Z 27002KT 20/20 A3003 RMK A01 T02030203  RH  100%=      5-min Rain = 0
KPA1 141311Z 28002KT 20/20 A3003 RMK A01 T02030203  RH  100%=      5-min Rain = 0
KPA1 141312Z 28002KT 20/20 A3003 RMK A01 T02040204  RH  100%=      5-min Rain = 0
KPA1 141313Z 28002KT 21/21 A3004 RMK A01 T02050205  RH  100%=      5-min Rain = 0
KPA1 141314Z 27002KT 21/21 A3004 RMK A01 T02060206  RH  100%=      5-min Rain = 0
KPA1 141315Z 28003KT 21/21 A3004 RMK A01 T02060206  RH  100%=      5-min Rain = 0
KPA1 141316Z 28003KT 21/21 A3004 RMK A01 T02070207  RH  100%=      5-min Rain = 0
KPA1 141317Z 29003KT 21/21 A3004 RMK A01 T02070207  RH  100%=      5-min Rain = 0
KPA1 141318Z 30004KT 21/21 A3004 RMK A01 T02080208  RH  100%=      5-min Rain = 0
KPA1 141319Z 32003KT 21/21 A3004 RMK A01 T02080208  RH  100%=      5-min Rain = 0
KPA1 141320Z 33004KT 21/21 A3004 RMK A01 T02090209  RH  100%=      5-min Rain = 0
KPA1 141321Z 35004KT 21/21 A3004 RMK A01 T02090209  RH  100%=      5-min Rain = 0
KPA1 141322Z 36006KT 21/21 A3004 RMK A01 T02090209  RH  100%=      5-min Rain = 0
KPA1 141323Z 35006KT 21/21 A3004 RMK A01 T02100210  RH  100%=      5-min Rain = 0
KPA1 141324Z 35006KT 21/21 A3004 RMK A01 T02090209  RH  100%=      5-min Rain = 0
KPA1 141325Z 35006KT 21/21 A3004 RMK A01 T02090209  RH  100%=      5-min Rain = 0
KPA1 141326Z 35005KT 21/21 A3004 RMK A01 T02100209  RH  099%=      5-min Rain = 0
KPA1 141327Z 34004KT 21/21 A3004 RMK A01 T02100209  RH  099%=      5-min Rain = 0
KPA1 141328Z 33004KT 21/21 A3004 RMK A01 T02110209  RH  099%=      5-min Rain = 0
KPA1 141329Z 32004KT 21/21 A3004 RMK A01 T02110209  RH  098%=      5-min Rain = 0
KPA1 141330Z 32004KT 21/21 A3004 RMK A01 T02120210  RH  099%=      5-min Rain = 0
KPA1 141331Z 32004KT 21/21 A3004 RMK A01 T02130209  RH  098%=      5-min Rain = 0
KPA1 141332Z 32004KT 21/21 A3004 RMK A01 T02130210  RH  098%=      5-min Rain = 0
KPA1 141333Z 31005KT 21/21 A3004 RMK A01 T02140210  RH  098%=      5-min Rain = 0
KPA1 141334Z 31003KT 21/21 A3004 RMK A01 T02140209  RH  097%=      5-min Rain = 0
KPA1 141335Z 31003KT 21/21 A3004 RMK A01 T02140209  RH  097%=      5-min Rain = 0
KPA1 141336Z 31004KT 21/21 A3004 RMK A01 T02140210  RH  097%=      5-min Rain = 0
KPA1 141337Z 31004KT 22/21 A3004 RMK A01 T02150209  RH  097%=      5-min Rain = 0
KPA1 141338Z 32004KT 22/21 A3004 RMK A01 T02150209  RH  096%=      5-min Rain = 0
KPA1 141339Z 31004KT 22/21 A3004 RMK A01 T02150209  RH  096%=      5-min Rain = 0
KPA1 141340Z 32004KT 22/21 A3004 RMK A01 T02150209  RH  096%=      5-min Rain = 0
KPA1 141341Z 32004KT 22/21 A3004 RMK A01 T02160210  RH  096%=      5-min Rain = 0
KPA1 141342Z 33005KT 22/21 A3004 RMK A01 T02160210  RH  096%=      5-min Rain = 0
KPA1 141343Z 34006KT 22/21 A3004 RMK A01 T02160209  RH  096%=      5-min Rain = 0
KPA1 141344Z 34006KT 22/21 A3004 RMK A01 T02160210  RH  096%=      5-min Rain = 0
KPA1 141345Z 34005KT 22/21 A3004 RMK A01 T02160210  RH  096%=      5-min Rain = 0
KPA1 141346Z 34006KT 22/21 A3004 RMK A01 T02170211  RH  097%=      5-min Rain = 0
KPA1 141347Z 33006KT 22/21 A3004 RMK A01 T02180212  RH  096%=      5-min Rain = 0
KPA1 141348Z 32006KT 22/21 A3004 RMK A01 T02180211  RH  095%=      5-min Rain = 0
KPA1 141349Z 32005KT 22/21 A3004 RMK A01 T02190211  RH  095%=      5-min Rain = 0
KPA1 141350Z 30006KT 22/21 A3005 RMK A01 T02190211  RH  095%=      5-min Rain = 0
KPA1 141351Z 31006KT 22/21 A3005 RMK A01 T02190210  RH  095%=      5-min Rain = 0
KPA1 141352Z 31005KT 22/21 A3004 RMK A01 T02190210  RH  095%=      5-min Rain = 0
KPA1 141353Z 32005KT 22/21 A3004 RMK A01 T02200211  RH  095%=      5-min Rain = 0
KPA1 141354Z 32004KT 22/21 A3004 RMK A01 T02210211  RH  094%=      5-min Rain = 0
KPA1 141355Z 31004KT 22/21 A3004 RMK A01 T02210211  RH  094%=      5-min Rain = 0
KPA1 141356Z 31004KT 22/21 A3004 RMK A01 T02210211  RH  094%=      5-min Rain = 0
KPA1 141357Z 31004KT 22/21 A3004 RMK A01 T02220212  RH  094%=      5-min Rain = 0
KPA1 141358Z 30005KT 22/21 A3004 RMK A01 T02240211  RH  093%=      5-min Rain = 0
KPA1 141359Z 29004KT 23/21 A3004 RMK A01 T02250212  RH  092%=      5-min Rain = 0
KPA1 141400Z 30005KT 23/21 A3004 RMK A01 T02260212  RH  092%=      5-min Rain = 0
KPA1 141401Z 29005KT 23/21 A3004 RMK A01 T02280212  RH  091%=      5-min Rain = 0
KPA1 141402Z 29005KT 23/21 A3004 RMK A01 T02290212  RH  090%=      5-min Rain = 0
KPA1 141403Z 29004KT 23/21 A3004 RMK A01 T02290211  RH  090%=      5-min Rain = 0
KPA1 141404Z 30004KT 23/21 A3004 RMK A01 T02300211  RH  089%=      5-min Rain = 0
KPA1 141405Z 31003KT 23/21 A3004 RMK A01 T02300212  RH  089%=      5-min Rain = 0
KPA1 141406Z 31004KT 23/21 A3004 RMK A01 T02320212  RH  089%=      5-min Rain = 0
KPA1 141407Z 31004KT 23/21 A3004 RMK A01 T02330212  RH  088%=      5-min Rain = 0
KPA1 141408Z 32003KT 23/21 A3004 RMK A01 T02330211  RH  087%=      5-min Rain = 0
KPA1 141409Z 32005KT 23/21 A3004 RMK A01 T02330211  RH  087%=      5-min Rain = 0
KPA1 141410Z 32005KT 23/21 A3004 RMK A01 T02330211  RH  087%=      5-min Rain = 0
KPA1 141411Z 32004KT 23/21 A3004 RMK A01 T02330211  RH  087%=      5-min Rain = 0
KPA1 141412Z 33003KT 24/21 A3004 RMK A01 T02350213  RH  087%=      5-min Rain = 0
KPA1 141413Z 32005KT 24/21 A3004 RMK A01 T02380213  RH  086%=      5-min Rain = 0
KPA1 141414Z 32004KT 24/21 A3004 RMK A01 T02400214  RH  085%=      5-min Rain = 0
KPA1 141415Z 33005KT 24/21 A3004 RMK A01 T02430214  RH  084%=      5-min Rain = 0
KPA1 141416Z 32005KT 24/21 A3004 RMK A01 T02440213  RH  083%=      5-min Rain = 0
KPA1 141417Z 32006KT 24/21 A3004 RMK A01 T02440213  RH  083%=      5-min Rain = 0
KPA1 141418Z 33006KT 25/21 A3004 RMK A01 T02450213  RH  082%=      5-min Rain = 0
KPA1 141419Z 34007KT 25/21 A3004 RMK A01 T02460213  RH  082%=      5-min Rain = 0
KPA1 141420Z 34008KT 25/21 A3004 RMK A01 T02470214  RH  082%=      5-min Rain = 0
KPA1 141421Z 35008KT 25/21 A3004 RMK A01 T02470214  RH  081%=      5-min Rain = 0
KPA1 141422Z 35009KT 25/21 A3004 RMK A01 T02490214  RH  081%=      5-min Rain = 0
KPA1 141423Z 35009KT 25/21 A3004 RMK A01 T02500213  RH  080%=      5-min Rain = 0
KPA1 141424Z 35009KT 25/21 A3004 RMK A01 T02500214  RH  080%=      5-min Rain = 0
KPA1 141425Z 35009KT 25/21 A3004 RMK A01 T02510214  RH  080%=      5-min Rain = 0
KPA1 141426Z 35008KT 25/22 A3003 RMK A01 T02520215  RH  080%=      5-min Rain = 0
KPA1 141427Z 35008KT 25/22 A3003 RMK A01 T02530215  RH  079%=      5-min Rain = 0
KPA1 141428Z 35008KT 26/22 A3003 RMK A01 T02550215  RH  079%=      5-min Rain = 0
KPA1 141429Z 34009KT 26/22 A3003 RMK A01 T02550215  RH  078%=      5-min Rain = 0
KPA1 141430Z 34008KT 26/21 A3003 RMK A01 T02550213  RH  078%=      5-min Rain = 0
KPA1 141431Z 34009KT 25/21 A3003 RMK A01 T02540214  RH  078%=      5-min Rain = 0
KPA1 141432Z 34009KT 26/21 A3003 RMK A01 T02560214  RH  078%=      5-min Rain = 0
KPA1 141433Z 34009KT 26/22 A3003 RMK A01 T02570215  RH  077%=      5-min Rain = 0
KPA1 141434Z 35009KT 26/22 A3003 RMK A01 T02580215  RH  077%=      5-min Rain = 0
KPA1 141435Z 35008KT 26/21 A3003 RMK A01 T02590214  RH  076%=      5-min Rain = 0
KPA1 141436Z 35006KT 26/22 A3003 RMK A01 T02580215  RH  077%=      5-min Rain = 0
KPA1 141437Z 33007KT 26/22 A3003 RMK A01 T02590215  RH  076%=      5-min Rain = 0
KPA1 141438Z 33007KT 26/21 A3004 RMK A01 T02600212  RH  075%=      5-min Rain = 0
KPA1 141439Z 33008KT 26/21 A3004 RMK A01 T02610213  RH  075%=      5-min Rain = 0
KPA1 141440Z 34008KT 26/21 A3004 RMK A01 T02610212  RH  075%=      5-min Rain = 0
KPA1 141441Z 33008KT 26/21 A3004 RMK A01 T02610213  RH  075%=      5-min Rain = 0
KPA1 141442Z 34007KT 26/21 A3004 RMK A01 T02610214  RH  075%=      5-min Rain = 0
KPA1 141443Z 35006KT 26/22 A3004 RMK A01 T02620215  RH  075%=      5-min Rain = 0
KPA1 141444Z 34005KT 26/22 A3004 RMK A01 T02630216  RH  075%=      5-min Rain = 0
KPA1 141445Z 34005KT 27/22 A3004 RMK A01 T02650216  RH  074%=      5-min Rain = 0
KPA1 141446Z 32003KT 27/22 A3004 RMK A01 T02660217  RH  074%=      5-min Rain = 0
KPA1 141447Z 31003KT 27/22 A3004 RMK A01 T02670215  RH  073%=      5-min Rain = 0
KPA1 141448Z 33003KT 27/22 A3004 RMK A01 T02670215  RH  073%=      5-min Rain = 0
KPA1 141449Z 34002KT 27/22 A3004 RMK A01 T02680216  RH  073%=      5-min Rain = 0
KPA1 141450Z 33004KT 27/22 A3004 RMK A01 T02690216  RH  073%=      5-min Rain = 0
KPA1 141451Z 34005KT 27/21 A3004 RMK A01 T02690214  RH  072%=      5-min Rain = 0
KPA1 141452Z 34006KT 27/22 A3004 RMK A01 T02690215  RH  073%=      5-min Rain = 0
KPA1 141453Z 34006KT 27/22 A3004 RMK A01 T02690216  RH  072%=      5-min Rain = 0
KPA1 141454Z 35006KT 27/22 A3003 RMK A01 T02700215  RH  072%=      5-min Rain = 0
KPA1 141455Z 33006KT 27/21 A3003 RMK A01 T02720214  RH  071%=      5-min Rain = 0
KPA1 141456Z 33007KT 27/22 A3003 RMK A01 T02720217  RH  072%=      5-min Rain = 0
KPA1 141457Z 34005KT 27/22 A3003 RMK A01 T02730218  RH  072%=      5-min Rain = 0
KPA1 141458Z 34005KT 27/22 A3003 RMK A01 T02740219  RH  072%=      5-min Rain = 0
KPA1 141459Z 33006KT 28/22 A3003 RMK A01 T02750218  RH  071%=      5-min Rain = 0
KPA1 141500Z 33006KT 28/22 A3004 RMK A01 T02750217  RH  071%=      5-min Rain = 0
KPA1 141501Z 35005KT 28/22 A3004 RMK A01 T02760218  RH  071%=      5-min Rain = 0
KPA1 141502Z 34006KT 28/22 A3004 RMK A01 T02760220  RH  071%=      5-min Rain = 0
KPA1 141503Z 33005KT 28/22 A3004 RMK A01 T02760218  RH  071%=      5-min Rain = 0
KPA1 141504Z 34006KT 28/22 A3004 RMK A01 T02770221  RH  072%=      5-min Rain = 0
KPA1 141505Z 34005KT 28/22 A3004 RMK A01 T02800222  RH  071%=      5-min Rain = 0
KPA1 141506Z 35007KT 28/22 A3004 RMK A01 T02810223  RH  071%=      5-min Rain = 0
KPA1 141507Z 35008KT 28/22 A3004 RMK A01 T02810221  RH  070%=      5-min Rain = 0
KPA1 141508Z 35008KT 28/22 A3004 RMK A01 T02810220  RH  070%=      5-min Rain = 0
KPA1 141509Z 34007KT 28/22 A3004 RMK A01 T02800219  RH  069%=      5-min Rain = 0
KPA1 141510Z 35006KT 28/22 A3004 RMK A01 T02810220  RH  070%=      5-min Rain = 0
KPA1 141511Z 34006KT 28/22 A3004 RMK A01 T02840221  RH  069%=      5-min Rain = 0
KPA1 141512Z 34005KT 29/22 A3004 RMK A01 T02850219  RH  068%=      5-min Rain = 0
KPA1 141513Z 32005KT 29/22 A3004 RMK A01 T02850218  RH  067%=      5-min Rain = 0
KPA1 141514Z 33006KT 29/22 A3004 RMK A01 T02870215  RH  065%=      5-min Rain = 0
KPA1 141515Z 33005KT 29/22 A3004 RMK A01 T02880216  RH  065%=      5-min Rain = 0
KPA1 141516Z 34005KT 29/22 A3004 RMK A01 T02890216  RH  065%=      5-min Rain = 0
KPA1 141517Z 33005KT 29/22 A3004 RMK A01 T02910216  RH  064%=      5-min Rain = 0
KPA1 141518Z 34005KT 29/22 A3004 RMK A01 T02910216  RH  064%=      5-min Rain = 0
KPA1 141519Z 34006KT 29/21 A3004 RMK A01 T02910212  RH  062%=      5-min Rain = 0
KPA1 141520Z 34005KT 29/21 A3004 RMK A01 T02920212  RH  062%=      5-min Rain = 0
KPA1 141521Z 33004KT 29/21 A3004 RMK A01 T02920211  RH  061%=      5-min Rain = 0
KPA1 141522Z 33005KT 29/21 A3004 RMK A01 T02930211  RH  061%=      5-min Rain = 0
KPA1 141523Z 34005KT 29/21 A3004 RMK A01 T02920211  RH  062%=      5-min Rain = 0
KPA1 141524Z 33005KT 29/21 A3004 RMK A01 T02910211  RH  062%=      5-min Rain = 0
KPA1 141525Z 35005KT 29/21 A3004 RMK A01 T02900212  RH  063%=      5-min Rain = 0
KPA1 141526Z 01005KT 29/22 A3004 RMK A01 T02900219  RH  065%=      5-min Rain = 0
KPA1 141527Z 00006KT 29/22 A3004 RMK A01 T02910220  RH  065%=      5-min Rain = 0
KPA1 141528Z 36006KT 29/22 A3004 RMK A01 T02920220  RH  065%=      5-min Rain = 0
KPA1 141529Z 36006KT 29/22 A3004 RMK A01 T02910221  RH  066%=      5-min Rain = 0
KPA1 141530Z 35007KT 29/22 A3004 RMK A01 T02910219  RH  065%=      5-min Rain = 0
KPA1 141531Z 35007KT 29/22 A3004 RMK A01 T02910218  RH  065%=      5-min Rain = 0
KPA1 141532Z 35007KT 29/22 A3004 RMK A01 T02910219  RH  065%=      5-min Rain = 0
KPA1 141533Z 35007KT 29/22 A3004 RMK A01 T02890220  RH  067%=      5-min Rain = 0
KPA1 141534Z 36007KT 29/22 A3004 RMK A01 T02900221  RH  066%=      5-min Rain = 0
KPA1 141535Z 35007KT 29/22 A3004 RMK A01 T02910219  RH  065%=      5-min Rain = 0
KPA1 141536Z 35006KT 29/22 A3004 RMK A01 T02910219  RH  065%=      5-min Rain = 0
KPA1 141537Z 36007KT 29/22 A3004 RMK A01 T02900217  RH  065%=      5-min Rain = 0
KPA1 141538Z 35007KT 29/22 A3004 RMK A01 T02890215  RH  064%=      5-min Rain = 0
KPA1 141539Z 35006KT 29/21 A3004 RMK A01 T02890212  RH  063%=      5-min Rain = 0
KPA1 141540Z 35005KT 29/21 A3004 RMK A01 T02890212  RH  063%=      5-min Rain = 0
KPA1 141541Z 34005KT 29/21 A3004 RMK A01 T02900212  RH  063%=      5-min Rain = 0
KPA1 141542Z 33005KT 29/21 A3004 RMK A01 T02910212  RH  062%=      5-min Rain = 0
KPA1 141543Z 34004KT 29/21 A3005 RMK A01 T02890214  RH  064%=      5-min Rain = 0
KPA1 141544Z 33006KT 29/21 A3004 RMK A01 T02890214  RH  064%=      5-min Rain = 0
KPA1 141545Z 35004KT 29/22 A3004 RMK A01 T02910215  RH  064%=      5-min Rain = 0
KPA1 141546Z 33005KT 29/21 A3004 RMK A01 T02940214  RH  062%=      5-min Rain = 0
KPA1 141547Z 33005KT 30/21 A3004 RMK A01 T02960211  RH  060%=      5-min Rain = 0
KPA1 141548Z 31004KT 30/21 A3004 RMK A01 T02960208  RH  059%=      5-min Rain = 0
KPA1 141549Z 33004KT 30/21 A3004 RMK A01 T02960211  RH  060%=      5-min Rain = 0
KPA1 141550Z 33004KT 30/21 A3004 RMK A01 T02980212  RH  060%=      5-min Rain = 0
KPA1 141551Z 33005KT 30/21 A3004 RMK A01 T02990210  RH  059%=      5-min Rain = 0
KPA1 141552Z 00004KT 30/21 A3004 RMK A01 T02990214  RH  061%=      5-min Rain = 0
KPA1 141553Z 34005KT 30/21 A3004 RMK A01 T03020214  RH  059%=      5-min Rain = 0
KPA1 141554Z 34005KT 30/21 A3004 RMK A01 T03030211  RH  058%=      5-min Rain = 0
KPA1 141555Z 34005KT 30/21 A3004 RMK A01 T03040210  RH  057%=      5-min Rain = 0
KPA1 141556Z 34005KT 30/21 A3004 RMK A01 T03040211  RH  058%=      5-min Rain = 0
KPA1 141557Z 35005KT 30/21 A3004 RMK A01 T03030211  RH  058%=      5-min Rain = 0
KPA1 141558Z 36007KT 30/21 A3004 RMK A01 T03010209  RH  058%=      5-min Rain = 0
KPA1 141559Z 36007KT 30/21 A3004 RMK A01 T02990206  RH  058%=      5-min Rain = 0
KPA1 141600Z 00005KT 30/21 A3004 RMK A01 T02990208  RH  058%=      5-min Rain = 0
KPA1 141601Z 35006KT 30/21 A3004 RMK A01 T03010207  RH  057%=      5-min Rain = 0
KPA1 141602Z 33007KT 30/21 A3004 RMK A01 T03030206  RH  056%=      5-min Rain = 0
KPA1 141603Z 33007KT 30/21 A3004 RMK A01 T03030206  RH  056%=      5-min Rain = 0
KPA1 141604Z 32005KT 30/21 A3004 RMK A01 T03020205  RH  056%=      5-min Rain = 0
KPA1 141605Z 33005KT 30/21 A3004 RMK A01 T03030206  RH  056%=      5-min Rain = 0
KPA1 141606Z 33007KT 31/20 A3004 RMK A01 T03060204  RH  055%=      5-min Rain = 0
KPA1 141607Z 33006KT 30/21 A3004 RMK A01 T03040206  RH  056%=      5-min Rain = 0
KPA1 141608Z 34005KT 30/20 A3004 RMK A01 T03030202  RH  055%=      5-min Rain = 0
KPA1 141609Z 34006KT 30/20 A3004 RMK A01 T03040202  RH  055%=      5-min Rain = 0
KPA1 141610Z 34006KT 30/21 A3004 RMK A01 T03030211  RH  058%=      5-min Rain = 0
KPA1 141611Z 34006KT 31/21 A3004 RMK A01 T03050206  RH  056%=      5-min Rain = 0
KPA1 141612Z 36004KT 31/21 A3004 RMK A01 T03060209  RH  056%=      5-min Rain = 0
KPA1 141613Z 35007KT 31/21 A3004 RMK A01 T03090214  RH  057%=      5-min Rain = 0
KPA1 141614Z 33006KT 31/21 A3004 RMK A01 T03120207  RH  054%=      5-min Rain = 0
KPA1 141615Z 33005KT 31/21 A3004 RMK A01 T03100207  RH  054%=      5-min Rain = 0
KPA1 141616Z 35005KT 31/21 A3004 RMK A01 T03080209  RH  056%=      5-min Rain = 0
KPA1 141617Z 34004KT 31/21 A3004 RMK A01 T03070209  RH  056%=      5-min Rain = 0
KPA1 141618Z 35003G8KT 30/21 A3004 RMK A01 T03040212  RH  058%=      5-min Rain = 0
KPA1 141619Z 01006KT 30/22 A3004 RMK A01 T03040215  RH  059%=      5-min Rain = 0
KPA1 141620Z 36005KT 31/22 A3004 RMK A01 T03070216  RH  058%=      5-min Rain = 0
KPA1 141621Z 01005KT 31/22 A3005 RMK A01 T03090217  RH  058%=      5-min Rain = 0
KPA1 141622Z 03004KT 31/22 A3004 RMK A01 T03080218  RH  059%=      5-min Rain = 0
KPA1 141623Z 03004KT 31/22 A3004 RMK A01 T03070218  RH  059%=      5-min Rain = 0
KPA1 141624Z 02004KT 31/21 A3004 RMK A01 T03070214  RH  058%=      5-min Rain = 0
KPA1 141625Z 01004KT 31/21 A3004 RMK A01 T03080214  RH  058%=      5-min Rain = 0
KPA1 141626Z 34004KT 31/21 A3004 RMK A01 T03080211  RH  056%=      5-min Rain = 0
KPA1 141627Z 31003KT 31/21 A3004 RMK A01 T03080206  RH  054%=      5-min Rain = 0
KPA1 141628Z 32002KT 31/21 A3004 RMK A01 T03080209  RH  055%=      5-min Rain = 0
KPA1 141629Z 33002KT 31/21 A3004 RMK A01 T03080208  RH  055%=      5-min Rain = 0
KPA1 141630Z 32003KT 31/21 A3004 RMK A01 T03100212  RH  056%=      5-min Rain = 0
KPA1 141631Z 34003KT 31/21 A3004 RMK A01 T03080213  RH  057%=      5-min Rain = 0
KPA1 141632Z 30003KT 31/21 A3004 RMK A01 T03100212  RH  056%=      5-min Rain = 0
KPA1 141633Z 29003KT 31/21 A3004 RMK A01 T03120209  RH  055%=      5-min Rain = 0
KPA1 141634Z 28003KT 31/21 A3004 RMK A01 T03120209  RH  054%=      5-min Rain = 0
KPA1 141635Z 26001KT 31/21 A3004 RMK A01 T03120209  RH  054%=      5-min Rain = 0
KPA1 141636Z 31002KT 31/21 A3004 RMK A01 T03120210  RH  054%=      5-min Rain = 0
KPA1 141637Z 32002KT 32/21 A3004 RMK A01 T03150213  RH  055%=      5-min Rain = 0
KPA1 141638Z 34002KT 32/21 A3004 RMK A01 T03170212  RH  054%=      5-min Rain = 0
KPA1 141639Z 33002KT 32/21 A3004 RMK A01 T03170209  RH  053%=      5-min Rain = 0
KPA1 141640Z 33001KT 32/21 A3004 RMK A01 T03150207  RH  053%=      5-min Rain = 0
KPA1 141641Z 34001KT 32/21 A3004 RMK A01 T03150207  RH  053%=      5-min Rain = 0
KPA1 141642Z 34001KT 32/21 A3004 RMK A01 T03180207  RH  052%=      5-min Rain = 0
KPA1 141643Z 33000KT 32/21 A3004 RMK A01 T03220207  RH  051%=      5-min Rain = 0
KPA1 141644Z 35001KT 33/21 A3004 RMK A01 T03250209  RH  050%=      5-min Rain = 0
KPA1 141645Z 00003KT 33/21 A3004 RMK A01 T03260208  RH  050%=      5-min Rain = 0
KPA1 141646Z 01002KT 33/21 A3004 RMK A01 T03250210  RH  051%=      5-min Rain = 0
KPA1 141647Z 35002KT 33/21 A3004 RMK A01 T03260209  RH  050%=      5-min Rain = 0
KPA1 141648Z 36001KT 33/21 A3004 RMK A01 T03260208  RH  050%=      5-min Rain = 0
KPA1 141649Z 01002KT 33/21 A3004 RMK A01 T03260209  RH  050%=      5-min Rain = 0
KPA1 141650Z 03004KT 33/21 A3004 RMK A01 T03260214  RH  052%=      5-min Rain = 0
KPA1 141651Z 05004KT 33/21 A3004 RMK A01 T03270212  RH  051%=      5-min Rain = 0
KPA1 141652Z 06005KT 33/21 A3004 RMK A01 T03250213  RH  052%=      5-min Rain = 0
KPA1 141653Z 05005KT 32/21 A3004 RMK A01 T03230212  RH  052%=      5-min Rain = 0
KPA1 141654Z 05005KT 32/21 A3004 RMK A01 T03220211  RH  052%=      5-min Rain = 0
KPA1 141655Z 04005KT 32/21 A3004 RMK A01 T03210212  RH  053%=      5-min Rain = 0
KPA1 141656Z 06004KT 32/21 A3004 RMK A01 T03220209  RH  051%=      5-min Rain = 0
KPA1 141657Z 05005KT 32/21 A3004 RMK A01 T03210209  RH  052%=      5-min Rain = 0
KPA1 141658Z 05005KT 32/21 A3004 RMK A01 T03220209  RH  051%=      5-min Rain = 0
KPA1 141659Z 05004KT 32/21 A3004 RMK A01 T03230209  RH  051%=      5-min Rain = 0
KPA1 141700Z 05005KT 33/21 A3004 RMK A01 T03250209  RH  051%=      5-min Rain = 0
KPA1 141701Z 06005KT 33/21 A3004 RMK A01 T03260208  RH  050%=      5-min Rain = 0
KPA1 141702Z 07005KT 33/21 A3004 RMK A01 T03270206  RH  049%=      5-min Rain = 0
KPA1 141703Z 06005KT 33/21 A3004 RMK A01 T03260209  RH  050%=      5-min Rain = 0
KPA1 141704Z 08005KT 33/21 A3004 RMK A01 T03260211  RH  051%=      5-min Rain = 0
KPA1 141705Z 08004KT 33/21 A3004 RMK A01 T03280208  RH  049%=      5-min Rain = 0
KPA1 141706Z 10003KT 33/21 A3004 RMK A01 T03300208  RH  049%=      5-min Rain = 0
KPA1 141707Z 14002KT 33/20 A3004 RMK A01 T03290204  RH  048%=      5-min Rain = 0
KPA1 141708Z 13004KT 33/20 A3004 RMK A01 T03280204  RH  048%=      5-min Rain = 0
KPA1 141709Z 12003KT 33/21 A3004 RMK A01 T03290205  RH  048%=      5-min Rain = 0
KPA1 141710Z 06003KT 33/21 A3004 RMK A01 T03330206  RH  047%=      5-min Rain = 0
KPA1 141711Z 07003KT 34/21 A3004 RMK A01 T03350205  RH  047%=      5-min Rain = 0
KPA1 141712Z 04004KT 34/20 A3004 RMK A01 T03350203  RH  046%=      5-min Rain = 0
KPA1 141713Z 02002KT 34/20 A3004 RMK A01 T03370202  RH  045%=      5-min Rain = 0
KPA1 141714Z 01005KT 34/20 A3004 RMK A01 T03360202  RH  045%=      5-min Rain = 0
KPA1 141715Z 36007KT 34/21 A3004 RMK A01 T03350206  RH  047%=      5-min Rain = 0
KPA1 141716Z 02006KT 33/21 A3004 RMK A01 T03320205  RH  048%=      5-min Rain = 0
KPA1 141717Z 02004KT 33/21 A3004 RMK A01 T03300206  RH  048%=      5-min Rain = 0
KPA1 141718Z 01002KT 33/21 A3004 RMK A01 T03290207  RH  049%=      5-min Rain = 0
KPA1 141719Z 02006KT 33/21 A3004 RMK A01 T03300208  RH  049%=      5-min Rain = 0
KPA1 141720Z 03003KT 33/21 A3004 RMK A01 T03310206  RH  048%=      5-min Rain = 0
KPA1 141721Z 03005KT 33/21 A3004 RMK A01 T03300206  RH  048%=      5-min Rain = 0
KPA1 141722Z 05005KT 33/20 A3004 RMK A01 T03310204  RH  047%=      5-min Rain = 0
KPA1 141723Z 04005KT 33/20 A3004 RMK A01 T03320203  RH  047%=      5-min Rain = 0
KPA1 141724Z 04002KT 33/20 A3004 RMK A01 T03320201  RH  046%=      5-min Rain = 0
KPA1 141725Z 05003KT 33/20 A3004 RMK A01 T03310202  RH  047%=      5-min Rain = 0
KPA1 141726Z 05002KT 33/20 A3004 RMK A01 T03320200  RH  046%=      5-min Rain = 0
KPA1 141727Z 05002KT 33/20 A3004 RMK A01 T03330203  RH  047%=      5-min Rain = 0
KPA1 141728Z 10004KT 34/20 A3004 RMK A01 T03360203  RH  046%=      5-min Rain = 0
KPA1 141729Z 09004KT 34/20 A3004 RMK A01 T03370204  RH  046%=      5-min Rain = 0
KPA1 141730Z 02006KT 34/21 A3004 RMK A01 T03400205  RH  045%=      5-min Rain = 0
KPA1 141731Z 05006KT 34/21 A3004 RMK A01 T03420205  RH  045%=      5-min Rain = 0
KPA1 141732Z 05006KT 34/20 A3004 RMK A01 T03430201  RH  044%=      5-min Rain = 0
KPA1 141733Z 06007KT 35/20 A3004 RMK A01 T03450201  RH  043%=      5-min Rain = 0
KPA1 141734Z 07005KT 35/20 A3004 RMK A01 T03460200  RH  042%=      5-min Rain = 0
KPA1 141735Z 03006KT 35/20 A3004 RMK A01 T03450201  RH  043%=      5-min Rain = 0
KPA1 141736Z 05007KT 34/20 A3004 RMK A01 T03420198  RH  043%=      5-min Rain = 0
KPA1 141737Z 04004KT 34/20 A3004 RMK A01 T03410197  RH  043%=      5-min Rain = 0
KPA1 141738Z 06005KT 34/20 A3004 RMK A01 T03400199  RH  044%=      5-min Rain = 0
KPA1 141739Z 05006KT 34/20 A3004 RMK A01 T03400199  RH  044%=      5-min Rain = 0
KPA1 141740Z 04005KT 34/20 A3004 RMK A01 T03390198  RH  043%=      5-min Rain = 0
KPA1 141741Z 06005KT 34/20 A3004 RMK A01 T03400198  RH  043%=      5-min Rain = 0
KPA1 141742Z 06005KT 34/20 A3004 RMK A01 T03410196  RH  042%=      5-min Rain = 0
KPA1 141743Z 06006KT 34/20 A3004 RMK A01 T03410196  RH  042%=      5-min Rain = 0
KPA1 141744Z 07005KT 34/19 A3004 RMK A01 T03410194  RH  042%=      5-min Rain = 0
KPA1 141745Z 06005KT 34/20 A3004 RMK A01 T03410197  RH  043%=      5-min Rain = 0
KPA1 141746Z 06006KT 34/20 A3004 RMK A01 T03400195  RH  043%=      5-min Rain = 0
KPA1 141747Z 07004KT 34/19 A3004 RMK A01 T03410193  RH  042%=      5-min Rain = 0
KPA1 141748Z 09005KT 34/19 A3004 RMK A01 T03410192  RH  041%=      5-min Rain = 0
KPA1 141749Z 07005KT 34/19 A3004 RMK A01 T03420193  RH  041%=      5-min Rain = 0
KPA1 141750Z 06006KT 34/19 A3004 RMK A01 T03440193  RH  041%=      5-min Rain = 0
KPA1 141751Z 05006KT 35/19 A3004 RMK A01 T03450193  RH  041%=      5-min Rain = 0
KPA1 141752Z 06005KT 35/19 A3004 RMK A01 T03450190  RH  040%=      5-min Rain = 0
KPA1 141753Z 05004KT 34/19 A3004 RMK A01 T03430193  RH  041%=      5-min Rain = 0
KPA1 141754Z 05003KT 34/19 A3004 RMK A01 T03430194  RH  041%=      5-min Rain = 0
KPA1 141755Z 10005KT 34/19 A3004 RMK A01 T03440191  RH  041%=      5-min Rain = 0
KPA1 141756Z 10003KT 35/19 A3004 RMK A01 T03450190  RH  040%=      5-min Rain = 0
KPA1 141757Z 09002KT 35/19 A3004 RMK A01 T03450191  RH  040%=      5-min Rain = 0
KPA1 141758Z 09003KT 35/19 A3004 RMK A01 T03460191  RH  040%=      5-min Rain = 0
KPA1 141759Z 07004KT 35/19 A3004 RMK A01 T03470191  RH  040%=      5-min Rain = 0
KPA1 141800Z 07004KT 35/19 A3004 RMK A01 T03480190  RH  039%=      5-min Rain = 0
KPA1 141801Z 06002KT 35/19 A3004 RMK A01 T03490189  RH  039%=      5-min Rain = 0
KPA1 141802Z 07005KT 35/19 A3004 RMK A01 T03500191  RH  039%=      5-min Rain = 0
KPA1 141803Z 08005KT 35/19 A3004 RMK A01 T03500190  RH  039%=      5-min Rain = 0
KPA1 141804Z 07006KT 35/19 A3004 RMK A01 T03490192  RH  040%=      5-min Rain = 0
KPA1 141805Z 05005KT 35/19 A3003 RMK A01 T03480192  RH  040%=      5-min Rain = 0
KPA1 141806Z 04003KT 35/19 A3003 RMK A01 T03470193  RH  040%=      5-min Rain = 0
KPA1 141807Z 08004KT 35/19 A3003 RMK A01 T03480193  RH  040%=      5-min Rain = 0
KPA1 141808Z 07007KT 35/19 A3003 RMK A01 T03510189  RH  039%=      5-min Rain = 0
KPA1 141809Z 07006KT 35/19 A3003 RMK A01 T03490189  RH  039%=      5-min Rain = 0
KPA1 141810Z 07005KT 35/19 A3003 RMK A01 T03480186  RH  038%=      5-min Rain = 0
KPA1 141811Z 10008KT 35/19 A3003 RMK A01 T03490190  RH  039%=      5-min Rain = 0
KPA1 141812Z 10007KT 35/19 A3003 RMK A01 T03500186  RH  038%=      5-min Rain = 0
KPA1 141813Z 09005KT 35/19 A3003 RMK A01 T03490187  RH  039%=      5-min Rain = 0
KPA1 141814Z 10006KT 35/19 A3003 RMK A01 T03520186  RH  038%=      5-min Rain = 0
KPA1 141815Z 10006KT 36/19 A3003 RMK A01 T03550186  RH  037%=      5-min Rain = 0
KPA1 141816Z 12002KT 35/18 A3003 RMK A01 T03540184  RH  037%=      5-min Rain = 0
KPA1 141817Z 09002KT 35/19 A3003 RMK A01 T03530186  RH  037%=      5-min Rain = 0
KPA1 141818Z 06001KT 35/19 A3003 RMK A01 T03540185  RH  037%=      5-min Rain = 0
KPA1 141819Z 09001KT 35/19 A3003 RMK A01 T03530185  RH  037%=      5-min Rain = 0
KPA1 141820Z 12001KT 35/18 A3003 RMK A01 T03530184  RH  037%=      5-min Rain = 0
KPA1 141821Z 10004KT 36/18 A3003 RMK A01 T03550184  RH  037%=      5-min Rain = 0
KPA1 141822Z 05002KT 36/19 A3003 RMK A01 T03560188  RH  037%=      5-min Rain = 0
KPA1 141823Z 06004KT 36/19 A3003 RMK A01 T03570192  RH  038%=      5-min Rain = 0
KPA1 141824Z 03004KT 36/19 A3003 RMK A01 T03580190  RH  037%=      5-min Rain = 0
KPA1 141825Z 08005KT 36/19 A3003 RMK A01 T03570186  RH  037%=      5-min Rain = 0
KPA1 141826Z 08005KT 36/18 A3003 RMK A01 T03580180  RH  035%=      5-min Rain = 0
KPA1 141827Z 07004KT 36/18 A3003 RMK A01 T03600180  RH  035%=      5-min Rain = 0
KPA1 141828Z 08005KT 36/18 A3003 RMK A01 T03610181  RH  035%=      5-min Rain = 0
KPA1 141829Z 08004KT 36/18 A3003 RMK A01 T03590178  RH  034%=      5-min Rain = 0
KPA1 141830Z 12003KT 36/18 A3003 RMK A01 T03570180  RH  035%=      5-min Rain = 0
KPA1 141831Z 11004KT 36/18 A3003 RMK A01 T03630180  RH  034%=      5-min Rain = 0
KPA1 141832Z 07004KT 37/18 A3003 RMK A01 T03650178  RH  033%=      5-min Rain = 0
KPA1 141833Z 08004KT 37/18 A3003 RMK A01 T03650176  RH  033%=      5-min Rain = 0
KPA1 141834Z 10004KT 36/17 A3002 RMK A01 T03630173  RH  033%=      5-min Rain = 0
KPA1 141835Z 13006KT 36/17 A3002 RMK A01 T03610173  RH  033%=      5-min Rain = 0
KPA1 141836Z 12007KT 36/17 A3002 RMK A01 T03640172  RH  032%=      5-min Rain = 0
KPA1 141837Z 10004KT 36/17 A3002 RMK A01 T03640167  RH  031%=      5-min Rain = 0
KPA1 141838Z 10003KT 36/17 A3002 RMK A01 T03610169  RH  032%=      5-min Rain = 0
KPA1 141839Z 11003KT 36/17 A3002 RMK A01 T03620174  RH  033%=      5-min Rain = 0
KPA1 141840Z 06001KT 36/17 A3002 RMK A01 T03620172  RH  033%=      5-min Rain = 0
KPA1 141841Z 11005KT 36/18 A3002 RMK A01 T03620178  RH  034%=      5-min Rain = 0
KPA1 141842Z 12008KT 36/17 A3002 RMK A01 T03630174  RH  033%=      5-min Rain = 0
KPA1 141843Z 12007KT 36/17 A3002 RMK A01 T03620171  RH  032%=      5-min Rain = 0
KPA1 141844Z 13006KT 36/18 A3002 RMK A01 T03630175  RH  033%=      5-min Rain = 0
KPA1 141845Z 14006KT 37/17 A3002 RMK A01 T03670173  RH  032%=      5-min Rain = 0
KPA1 141846Z 14005KT 37/17 A3002 RMK A01 T03670170  RH  031%=      5-min Rain = 0
KPA1 141847Z 11006KT 37/17 A3002 RMK A01 T03660172  RH  032%=      5-min Rain = 0
KPA1 141848Z 10008KT 37/17 A3002 RMK A01 T03670167  RH  031%=      5-min Rain = 0
KPA1 141849Z 10007KT 37/17 A3002 RMK A01 T03650167  RH  031%=      5-min Rain = 0
KPA1 141850Z 10005KT 36/17 A3002 RMK A01 T03640166  RH  031%=      5-min Rain = 0
KPA1 141851Z 11006KT 36/17 A3002 RMK A01 T03630168  RH  032%=      5-min Rain = 0
KPA1 141852Z 11004KT 36/17 A3002 RMK A01 T03640167  RH  031%=      5-min Rain = 0
KPA1 141853Z 09004KT 36/17 A3002 RMK A01 T03640167  RH  031%=      5-min Rain = 0
KPA1 141854Z 08005KT 36/17 A3002 RMK A01 T03630168  RH  032%=      5-min Rain = 0
KPA1 141855Z 12005KT 36/17 A3002 RMK A01 T03640171  RH  032%=      5-min Rain = 0
KPA1 141856Z 14006KT 37/17 A3002 RMK A01 T03670174  RH  032%=      5-min Rain = 0
KPA1 141857Z 14006KT 37/17 A3002 RMK A01 T03710172  RH  031%=      5-min Rain = 0
KPA1 141858Z 12006KT 37/17 A3002 RMK A01 T03720170  RH  031%=      5-min Rain = 0
KPA1 141859Z 13007KT 37/17 A3002 RMK A01 T03690169  RH  031%=      5-min Rain = 0
KPA1 141900Z 12006KT 37/17 A3002 RMK A01 T03690172  RH  031%=      5-min Rain = 0
KPA1 141901Z 12005KT 37/17 A3002 RMK A01 T03690172  RH  031%=      5-min Rain = 0
KPA1 141902Z 11006KT 37/17 A3002 RMK A01 T03690174  RH  032%=      5-min Rain = 0
KPA1 141903Z 12004KT 37/17 A3002 RMK A01 T03660173  RH  032%=      5-min Rain = 0
KPA1 141904Z 10005KT 37/18 A3002 RMK A01 T03650175  RH  033%=      5-min Rain = 0
KPA1 141905Z 11007KT 37/17 A3002 RMK A01 T03660172  RH  032%=      5-min Rain = 0
KPA1 141906Z 12007KT 37/17 A3002 RMK A01 T03670172  RH  032%=      5-min Rain = 0
KPA1 141907Z 12006KT 37/17 A3002 RMK A01 T03680174  RH  032%=      5-min Rain = 0
KPA1 141908Z 13005KT 37/17 A3002 RMK A01 T03710173  RH  031%=      5-min Rain = 0
KPA1 141909Z 10005KT 37/17 A3002 RMK A01 T03720172  RH  031%=      5-min Rain = 0
KPA1 141910Z 09005KT 37/17 A3002 RMK A01 T03710171  RH  031%=      5-min Rain = 0
KPA1 141911Z 09006KT 37/17 A3002 RMK A01 T03710166  RH  030%=      5-min Rain = 0
KPA1 141912Z 08005KT 37/16 A3001 RMK A01 T03720163  RH  029%=      5-min Rain = 0
KPA1 141913Z 07004KT 37/16 A3001 RMK A01 T03700156  RH  028%=      5-min Rain = 0
KPA1 141914Z 08003KT 37/15 A3001 RMK A01 T03690154  RH  028%=      5-min Rain = 0
KPA1 141915Z 07005KT 37/16 A3001 RMK A01 T03690158  RH  029%=      5-min Rain = 0
KPA1 141916Z 08004KT 37/16 A3001 RMK A01 T03710156  RH  028%=      5-min Rain = 0
KPA1 141917Z 07003KT 37/16 A3001 RMK A01 T03710158  RH  029%=      5-min Rain = 0
KPA1 141918Z 06005KT 37/16 A3001 RMK A01 T03690161  RH  029%=      5-min Rain = 0
KPA1 141919Z 06005KT 37/16 A3001 RMK A01 T03680162  RH  030%=      5-min Rain = 0
KPA1 141920Z 06004KT 37/16 A3001 RMK A01 T03680161  RH  029%=      5-min Rain = 0
KPA1 141921Z 10005KT 37/16 A3001 RMK A01 T03690161  RH  029%=      5-min Rain = 0
KPA1 141922Z 11004KT 37/16 A3001 RMK A01 T03680158  RH  029%=      5-min Rain = 0
KPA1 141923Z 10008KT 37/16 A3001 RMK A01 T03670160  RH  029%=      5-min Rain = 0
KPA1 141924Z 12006KT 37/16 A3001 RMK A01 T03710157  RH  028%=      5-min Rain = 0
KPA1 141925Z 10006KT 37/16 A3001 RMK A01 T03730158  RH  028%=      5-min Rain = 0
KPA1 141926Z 09005KT 38/15 A3001 RMK A01 T03750154  RH  027%=      5-min Rain = 0
KPA1 141927Z 09004KT 37/15 A3001 RMK A01 T03710152  RH  027%=      5-min Rain = 0
KPA1 141928Z 07005KT 37/16 A3001 RMK A01 T03690157  RH  029%=      5-min Rain = 0
KPA1 141929Z 05003KT 37/15 A3001 RMK A01 T03700153  RH  028%=      5-min Rain = 0
KPA1 141930Z 02002KT 37/15 A30 RMK A01 T03690154  RH  028%=      5-min Rain = 0
KPA1 141931Z 13004KT 37/16 A30 RMK A01 T03690156  RH  028%=      5-min Rain = 0
KPA1 141932Z 11004KT 37/16 A30 RMK A01 T03710158  RH  028%=      5-min Rain = 0
KPA1 141933Z 08006KT 37/16 A3001 RMK A01 T03740155  RH  027%=      5-min Rain = 0
KPA1 141934Z 05002KT 37/15 A30 RMK A01 T03710153  RH  028%=      5-min Rain = 0
KPA1 141935Z 06003KT 37/16 A30 RMK A01 T03690156  RH  028%=      5-min Rain = 0
KPA1 141936Z 06004KT 37/15 A30 RMK A01 T03700154  RH  028%=      5-min Rain = 0
KPA1 141937Z 09005KT 37/16 A30 RMK A01 T03720158  RH  028%=      5-min Rain = 0
KPA1 141938Z 14006KT 38/16 A30 RMK A01 T03760157  RH  028%=      5-min Rain = 0
KPA1 141939Z 13006KT 38/16 A30 RMK A01 T03800158  RH  027%=      5-min Rain = 0
KPA1 141940Z 14006KT 38/16 A30 RMK A01 T03820158  RH  027%=      5-min Rain = 0
KPA1 141941Z 13005KT 38/16 A30 RMK A01 T03800157  RH  027%=      5-min Rain = 0
KPA1 141942Z 11006KT 38/16 A30 RMK A01 T03770157  RH  027%=      5-min Rain = 0
KPA1 141943Z 12005KT 38/16 A30 RMK A01 T03760160  RH  028%=      5-min Rain = 0
KPA1 141944Z 17003KT 38/16 A30 RMK A01 T03790161  RH  028%=      5-min Rain = 0
KPA1 141945Z 11004KT 38/16 A30 RMK A01 T03800162  RH  028%=      5-min Rain = 0
KPA1 141946Z 09004KT 38/16 A30 RMK A01 T03810158  RH  027%=      5-min Rain = 0
KPA1 141947Z 08004KT 38/16 A2999 RMK A01 T03810158  RH  027%=      5-min Rain = 0
KPA1 141948Z 07003KT 38/16 A2999 RMK A01 T03780156  RH  027%=      5-min Rain = 0
KPA1 141949Z 02002KT 38/16 A2999 RMK A01 T03750155  RH  027%=      5-min Rain = 0
KPA1 141950Z 11003KT 37/16 A2999 RMK A01 T03730156  RH  028%=      5-min Rain = 0
KPA1 141951Z 12008KT 37/16 A2999 RMK A01 T03730159  RH  028%=      5-min Rain = 0
KPA1 141952Z 12008KT 38/16 A2999 RMK A01 T03760159  RH  028%=      5-min Rain = 0
KPA1 141953Z 12005KT 38/16 A2999 RMK A01 T03760160  RH  028%=      5-min Rain = 0
KPA1 141954Z 12003KT 38/16 A2999 RMK A01 T03780159  RH  028%=      5-min Rain = 0
KPA1 141955Z 15002KT 38/16 A2999 RMK A01 T03800159  RH  027%=      5-min Rain = 0
KPA1 141956Z 18001KT 38/16 A2999 RMK A01 T03800158  RH  027%=      5-min Rain = 0
KPA1 141957Z 00000KT 38/16 A2999 RMK A01 T03770157  RH  027%=      5-min Rain = 0
KPA1 141958Z 27001KT 38/16 A2999 RMK A01 T03760159  RH  028%=      5-min Rain = 0
KPA1 141959Z 07003KT 38/16 A2999 RMK A01 T03770163  RH  028%=      5-min Rain = 0
KPA1 142000Z 17004KT 38/17 A2999 RMK A01 T03830165  RH  028%=      5-min Rain = 0
KPA1 142001Z 09007KT 38/16 A2999 RMK A01 T03840161  RH  027%=      5-min Rain = 0
KPA1 142002Z 09007KT 38/16 A2999 RMK A01 T03820160  RH  027%=      5-min Rain = 0
KPA1 142003Z 08006KT 38/16 A2999 RMK A01 T03830161  RH  027%=      5-min Rain = 0
KPA1 142004Z 08006KT 38/16 A2999 RMK A01 T03830161  RH  027%=      5-min Rain = 0
KPA1 142005Z 08006KT 38/16 A2999 RMK A01 T03820157  RH  027%=      5-min Rain = 0
KPA1 142006Z 07006KT 38/16 A2999 RMK A01 T03780156  RH  027%=      5-min Rain = 0
KPA1 142007Z 07004KT 38/15 A2999 RMK A01 T03760154  RH  027%=      5-min Rain = 0
KPA1 142008Z 08004KT 38/16 A2998 RMK A01 T03750156  RH  027%=      5-min Rain = 0
KPA1 142009Z 09003KT 38/15 A2998 RMK A01 T03750154  RH  027%=      5-min Rain = 0
KPA1 142010Z 07001KT 38/16 A2998 RMK A01 T03760157  RH  027%=      5-min Rain = 0
KPA1 142011Z 04000KT 38/15 A2998 RMK A01 T03760153  RH  027%=      5-min Rain = 0
KPA1 142012Z 03000KT 38/15 A2998 RMK A01 T03770154  RH  027%=      5-min Rain = 0
KPA1 142013Z 31000KT 38/16 A2998 RMK A01 T03780155  RH  027%=      5-min Rain = 0
KPA1 142014Z 11000KT 38/16 A2998 RMK A01 T03780155  RH  027%=      5-min Rain = 0
KPA1 142015Z 12007KT 38/16 A2998 RMK A01 T03800157  RH  027%=      5-min Rain = 0
KPA1 142016Z 13007KT 38/15 A2998 RMK A01 T03810154  RH  026%=      5-min Rain = 0
KPA1 142017Z 14008KT 38/16 A2998 RMK A01 T03820156  RH  026%=      5-min Rain = 0
KPA1 142018Z 13006KT 38/15 A2998 RMK A01 T03840154  RH  026%=      5-min Rain = 0
KPA1 142019Z 09006KT 38/16 A2998 RMK A01 T03840159  RH  027%=      5-min Rain = 0
KPA1 142020Z 07006KT 38/16 A2998 RMK A01 T03840163  RH  027%=      5-min Rain = 0
KPA1 142021Z 09008KT 38/16 A2998 RMK A01 T03830162  RH  027%=      5-min Rain = 0
KPA1 142022Z 09006KT 38/16 A2998 RMK A01 T03800161  RH  027%=      5-min Rain = 0
KPA1 142023Z 11008KT 38/16 A2998 RMK A01 T03810162  RH  028%=      5-min Rain = 0
KPA1 142024Z 08008KT 38/16 A2998 RMK A01 T03830160  RH  027%=      5-min Rain = 0
KPA1 142025Z 08010KT 38/16 A2998 RMK A01 T03830158  RH  027%=      5-min Rain = 0
KPA1 142026Z 10008KT 38/15 A2998 RMK A01 T03810152  RH  026%=      5-min Rain = 0
KPA1 142027Z 10009KT 38/15 A2997 RMK A01 T03790151  RH  026%=      5-min Rain = 0
KPA1 142028Z 08009KT 38/15 A2997 RMK A01 T03760151  RH  026%=      5-min Rain = 0
KPA1 142029Z 08008KT 37/15 A2997 RMK A01 T03710150  RH  027%=      5-min Rain = 0
KPA1 142030Z 07007KT 37/15 A2997 RMK A01 T03680150  RH  027%=      5-min Rain = 0
KPA1 142031Z 06006KT 37/15 A2997 RMK A01 T03660151  RH  028%=      5-min Rain = 0
KPA1 142032Z 07008KT 37/15 A2997 RMK A01 T03650151  RH  028%=      5-min Rain = 0
KPA1 142033Z 09006KT 36/15 A2997 RMK A01 T03640150  RH  028%=      5-min Rain = 0
KPA1 142034Z 09006KT 36/15 A2997 RMK A01 T03630154  RH  029%=      5-min Rain = 0
KPA1 142035Z 09006KT 36/15 A2997 RMK A01 T03630150  RH  028%=      5-min Rain = 0
KPA1 142036Z 09005KT 36/15 A2997 RMK A01 T03630148  RH  028%=      5-min Rain = 0
KPA1 142037Z 10006KT 36/15 A2997 RMK A01 T03630148  RH  028%=      5-min Rain = 0
KPA1 142038Z 09003KT 36/15 A2997 RMK A01 T03630148  RH  028%=      5-min Rain = 0
KPA1 142039Z 09004KT 36/15 A2997 RMK A01 T03620148  RH  028%=      5-min Rain = 0
KPA1 142040Z 09006KT 36/15 A2997 RMK A01 T03630149  RH  028%=      5-min Rain = 0
KPA1 142041Z 09008KT 37/15 A2997 RMK A01 T03670151  RH  028%=      5-min Rain = 0
KPA1 142042Z 08007KT 37/15 A2997 RMK A01 T03720149  RH  027%=      5-min Rain = 0
KPA1 142043Z 08006KT 37/15 A2997 RMK A01 T03730149  RH  026%=      5-min Rain = 0
KPA1 142044Z 11006KT 38/15 A2997 RMK A01 T03750151  RH  027%=      5-min Rain = 0
KPA1 142045Z 11008KT 38/16 A2997 RMK A01 T03780155  RH  027%=      5-min Rain = 0
KPA1 142046Z 11008KT 38/15 A2997 RMK A01 T03780152  RH  026%=      5-min Rain = 0
KPA1 142047Z 11009KT 38/15 A2997 RMK A01 T03760152  RH  027%=      5-min Rain = 0
KPA1 142048Z 12008KT 37/15 A2997 RMK A01 T03740151  RH  027%=      5-min Rain = 0
KPA1 142049Z 12008KT 37/15 A2997 RMK A01 T03720151  RH  027%=      5-min Rain = 0
KPA1 142050Z 11009KT 37/15 A2997 RMK A01 T03710152  RH  027%=      5-min Rain = 0
KPA1 142051Z 11009KT 37/16 A2997 RMK A01 T03700156  RH  028%=      5-min Rain = 0
KPA1 142052Z 11009KT 37/16 A2997 RMK A01 T03670158  RH  029%=      5-min Rain = 0
KPA1 142053Z 11008KT 36/16 A2997 RMK A01 T03630157  RH  029%=      5-min Rain = 0
KPA1 142054Z 11007KT 36/16 A2997 RMK A01 T03610159  RH  030%=      5-min Rain = 0
KPA1 142055Z 12009KT 36/16 A2997 RMK A01 T03600159  RH  030%=      5-min Rain = 0
KPA1 142056Z 12008KT 36/16 A2997 RMK A01 T03580155  RH  030%=      5-min Rain = 0
KPA1 142057Z 12009KT 36/15 A2996 RMK A01 T03560154  RH  030%=      5-min Rain = 0
KPA1 142058Z 14010KT 35/15 A2996 RMK A01 T03530154  RH  031%=      5-min Rain = 0
KPA1 142059Z 13011KT 35/15 A2996 RMK A01 T03520151  RH  030%=      5-min Rain = 0
KPA1 142100Z 12010KT 35/15 A2996 RMK A01 T03530146  RH  029%=      5-min Rain = 0
KPA1 142101Z 12010KT 36/14 A2996 RMK A01 T03550144  RH  028%=      5-min Rain = 0
KPA1 142102Z 13010KT 36/15 A2996 RMK A01 T03550147  RH  029%=      5-min Rain = 0
KPA1 142103Z 12009KT 35/15 A2996 RMK A01 T03540148  RH  029%=      5-min Rain = 0
KPA1 142104Z 12009KT 35/15 A2996 RMK A01 T03530149  RH  030%=      5-min Rain = 0
KPA1 142105Z 11008KT 35/15 A2996 RMK A01 T03520150  RH  030%=      5-min Rain = 0
KPA1 142106Z 11007KT 35/15 A2996 RMK A01 T03520147  RH  029%=      5-min Rain = 0
KPA1 142107Z 12006KT 35/14 A2997 RMK A01 T03540144  RH  028%=      5-min Rain = 0
KPA1 142108Z 12007KT 36/14 A2997 RMK A01 T03560142  RH  028%=      5-min Rain = 0
KPA1 142109Z 12006KT 36/14 A2997 RMK A01 T03560142  RH  028%=      5-min Rain = 0
KPA1 142110Z 13007KT 36/14 A2997 RMK A01 T03570144  RH  028%=      5-min Rain = 0
KPA1 142111Z 14007KT 36/15 A2997 RMK A01 T03560147  RH  029%=      5-min Rain = 0
KPA1 142112Z 15007KT 36/15 A2997 RMK A01 T03550149  RH  029%=      5-min Rain = 0
KPA1 142113Z 17008KT 35/15 A2998 RMK A01 T03520154  RH  031%=      5-min Rain = 0
KPA1 142114Z 18014G20KT 35/16 A2998 RMK A01 T03480158  RH  032%=      5-min Rain = 0
KPA1 142115Z 18018G23KT 34/16 A2998 RMK A01 T03400155  RH  033%=      5-min Rain = 0
KPA1 142116Z 19027G32KT 33/16 A2997 RMK A01 T03310157  RH  035%=      5-min Rain = 0
KPA1 142117Z 20027G32KT 32/16 A2998 RMK A01 T03230158  RH  037%=      5-min Rain = 0
KPA1 142118Z 19026KT 32/16 A2998 RMK A01 T03170159  RH  038%=      5-min Rain = 0
KPA1 142119Z 19025KT 31/16 A2998 RMK A01 T03140160  RH  039%=      5-min Rain = 0
KPA1 142120Z 18024KT 31/16 A2998 RMK A01 T03110160  RH  040%=      5-min Rain = 0
KPA1 142121Z 18020KT 31/16 A2998 RMK A01 T03100160  RH  040%=      5-min Rain = 0
KPA1 142122Z 18017KT 31/16 A2998 RMK A01 T03090160  RH  041%=      5-min Rain = 0
KPA1 142123Z 17016G21KT 31/16 A2998 RMK A01 T03090161  RH  041%=      5-min Rain = 0
KPA1 142124Z 17014KT 31/16 A2998 RMK A01 T03080161  RH  041%=      5-min Rain = 0
KPA1 142125Z 15017KT 31/16 A2998 RMK A01 T03080162  RH  041%=      5-min Rain = 0
KPA1 142126Z 16020G26KT 31/16 A2998 RMK A01 T03070164  RH  042%=      5-min Rain = 0
KPA1 142127Z 16023KT 30/16 A2998 RMK A01 T03030162  RH  042%=      5-min Rain = 0
KPA1 142128Z 17026G31KT 30/16 A2997 RMK A01 T03000159  RH  043%=      5-min Rain = 0
KPA1 142129Z 17028G34KT 30/16 A2997 RMK A01 T02960159  RH  043%=      5-min Rain = 0
KPA1 142130Z 17030G35KT 29/16 A2997 RMK A01 T02930160  RH  045%=      5-min Rain = 0
KPA1 142131Z 17027G32KT 29/16 A2997 RMK A01 T02900162  RH  046%=      5-min Rain = 0
KPA1 142132Z 17027KT 29/16 A2997 RMK A01 T02880160  RH  046%=      5-min Rain = 0
KPA1 142133Z 16026G32KT 29/16 A2997 RMK A01 T02870160  RH  046%=      5-min Rain = 0
KPA1 142134Z 17033G38KT 29/15 A2997 RMK A01 T02860154  RH  045%=      5-min Rain = 0
KPA1 142135Z 17027G32KT 29/15 A2998 RMK A01 T02850150  RH  044%=      5-min Rain = 0
KPA1 142136Z 17025KT 29/15 A2998 RMK A01 T02850149  RH  044%=      5-min Rain = 0
KPA1 142137Z 17023KT 28/15 A2998 RMK A01 T02840149  RH  044%=      5-min Rain = 0
KPA1 142138Z 16025G31KT 28/15 A2998 RMK A01 T02830146  RH  043%=      5-min Rain = 0
KPA1 142139Z 17027G32KT 28/14 A2998 RMK A01 T02830141  RH  042%=      5-min Rain = 0
KPA1 142140Z 17023G30KT 29/14 A2999 RMK A01 T02850139  RH  041%=      5-min Rain = 0
KPA1 142141Z 16022KT 29/14 A2999 RMK A01 T02850140  RH  041%=      5-min Rain = 0
KPA1 142142Z 16022G27KT 28/14 A2999 RMK A01 T02830141  RH  042%=      5-min Rain = 0
KPA1 142143Z 16025G31KT 28/14 A2999 RMK A01 T02810139  RH  042%=      5-min Rain = 0
KPA1 142144Z 16024G29KT 28/14 A2998 RMK A01 T02810135  RH  041%=      5-min Rain = 0
KPA1 142145Z 16026KT 28/13 A2999 RMK A01 T02820130  RH  039%=      5-min Rain = 0
KPA1 142146Z 16026G31KT 29/13 A2999 RMK A01 T02850127  RH  038%=      5-min Rain = 0
KPA1 142147Z 15029G35KT 29/14 A2999 RMK A01 T02860135  RH  039%=      5-min Rain = 0
KPA1 142148Z 15029KT 29/14 A2999 RMK A01 T02860141  RH  041%=      5-min Rain = 0
KPA1 142149Z 16027G32KT 29/14 A2999 RMK A01 T02870143  RH  041%=      5-min Rain = 0
KPA1 142150Z 15026G31KT 29/15 A2999 RMK A01 T02870145  RH  042%=      5-min Rain = 0
KPA1 142151Z 15031KT 29/15 A2999 RMK A01 T02850149  RH  044%=      5-min Rain = 0
KPA1 142152Z 15029G35KT 28/16 A2999 RMK A01 T02820155  RH  046%=      5-min Rain = 0
KPA1 142153Z 15023G29KT 28/16 A30 RMK A01 T02790158  RH  048%=      5-min Rain = 0
KPA1 142154Z 15023G28KT 28/16 A30 RMK A01 T02760161  RH  049%=      5-min Rain = 0
KPA1 142155Z 15024KT 27/17 A30 RMK A01 T02720165  RH  052%=      5-min Rain = 0
KPA1 142156Z 15024KT 27/17 A2999 RMK A01 T02670168  RH  055%=      5-min Rain = 0
KPA1 142157Z 15023G30KT 26/17 A2999 RMK A01 T02620170  RH  057%=      5-min Rain = 0
KPA1 142158Z 15024KT 26/17 A2999 RMK A01 T02610169  RH  057%=      5-min Rain = 0
KPA1 142159Z 14022KT 27/17 A2999 RMK A01 T02650169  RH  056%=      5-min Rain = 0
KPA1 142200Z 14024G32KT 27/17 A2999 RMK A01 T02670168  RH  055%=      5-min Rain = 0
KPA1 142201Z 14022KT 27/17 A2999 RMK A01 T02690168  RH  054%=      5-min Rain = 0
KPA1 142202Z 14023G28KT 27/17 A2999 RMK A01 T02690169  RH  054%=      5-min Rain = 0
KPA1 142203Z 14022KT 27/17 A2999 RMK A01 T02700170  RH  054%=      5-min Rain = 0
KPA1 142204Z 14023G28KT 27/17 A30 RMK A01 T02700173  RH  055%=      5-min Rain = 0
KPA1 142205Z 14021KT 27/18 A30 RMK A01 T02650175  RH  058%=      5-min Rain = 0
KPA1 142206Z 14020KT 26/18 A30 RMK A01 T02630176  RH  059%=      5-min Rain = 0
KPA1 142207Z 14020G25KT 26/18 A30 RMK A01 T02610177  RH  060%=      5-min Rain = 0
KPA1 142208Z 14018KT 26/18 A30 RMK A01 T02600177  RH  060%=      5-min Rain = 0
KPA1 142209Z 14018KT 26/18 A30 RMK A01 T02600178  RH  061%=      5-min Rain = 0
KPA1 142210Z 13020KT 26/18 A30 RMK A01 T02600180  RH  061%=      5-min Rain = 0
KPA1 142211Z 13019KT 26/18 A30 RMK A01 T02590180  RH  062%=      5-min Rain = 0
KPA1 142212Z 14019KT 26/18 A30 RMK A01 T02600180  RH  061%=      5-min Rain = 0
KPA1 142213Z 14019KT 26/18 A30 RMK A01 T02600182  RH  062%=      5-min Rain = 0
KPA1 142214Z 14018KT 26/18 A30 RMK A01 T02590183  RH  063%=      5-min Rain = 0
KPA1 142215Z 14017KT 26/18 A30 RMK A01 T02560184  RH  065%=      5-min Rain = 0
KPA1 142216Z 14017KT 25/19 A30 RMK A01 T02530185  RH  066%=      5-min Rain = 0
KPA1 142217Z 14017G22KT 25/19 A30 RMK A01 T02500187  RH  068%=      5-min Rain = 0
KPA1 142218Z 14017KT 25/19 A30 RMK A01 T02470186  RH  069%=      5-min Rain = 0
KPA1 142219Z 13016KT 25/19 A30 RMK A01 T02470186  RH  069%=      5-min Rain = 0
KPA1 142220Z 13017KT 25/19 A30 RMK A01 T02470186  RH  068%=      5-min Rain = 0
KPA1 142221Z 13016KT 25/19 A30 RMK A01 T02480187  RH  069%=      5-min Rain = 0
KPA1 142222Z 13016KT 25/19 A30 RMK A01 T02480187  RH  069%=      5-min Rain = 0
KPA1 142223Z 13015KT 25/19 A30 RMK A01 T02480188  RH  069%=      5-min Rain = 0.01
KPA1 142224Z 13015KT 25/19 A30 RMK A01 T02480189  RH  070%=      5-min Rain = 0
KPA1 142225Z 13015KT 25/19 A30 RMK A01 T02470189  RH  070%=      5-min Rain = 0
KPA1 142226Z 13016KT 25/19 A2999 RMK A01 T02470187  RH  069%=      5-min Rain = 0
KPA1 142227Z 13015KT 25/19 A2999 RMK A01 T02480188  RH  069%=      5-min Rain = 0
KPA1 142228Z 13014KT 25/19 A2999 RMK A01 T02480189  RH  070%=      5-min Rain = 0
KPA1 142229Z 13013KT 25/19 A2998 RMK A01 T02470191  RH  071%=      5-min Rain = 0
KPA1 142230Z 13015KT 25/19 A2998 RMK A01 T02460190  RH  071%=      5-min Rain = 0
KPA1 142231Z 13013KT 25/19 A2998 RMK A01 T02460189  RH  070%=      5-min Rain = 0
KPA1 142232Z 14014KT 25/19 A2998 RMK A01 T02470189  RH  070%=      5-min Rain = 0
KPA1 142233Z 14013KT 25/19 A2998 RMK A01 T02470187  RH  069%=      5-min Rain = 0
KPA1 142234Z 14010KT 25/19 A2998 RMK A01 T02490187  RH  068%=      5-min Rain = 0
KPA1 142235Z 14011KT 25/19 A2998 RMK A01 T02500188  RH  068%=      5-min Rain = 0
KPA1 142236Z 14013KT 25/19 A2998 RMK A01 T02500188  RH  068%=      5-min Rain = 0
KPA1 142237Z 14016KT 25/19 A2998 RMK A01 T02520185  RH  066%=      5-min Rain = 0
KPA1 142238Z 14015KT 26/18 A2998 RMK A01 T02570182  RH  063%=      5-min Rain = 0
KPA1 142239Z 14014KT 26/18 A2998 RMK A01 T02610179  RH  061%=      5-min Rain = 0
KPA1 142240Z 14013KT 27/18 A2998 RMK A01 T02660178  RH  059%=      5-min Rain = 0
KPA1 142241Z 13011KT 27/18 A2998 RMK A01 T02680178  RH  058%=      5-min Rain = 0
KPA1 142242Z 12008KT 27/18 A2998 RMK A01 T02700175  RH  056%=      5-min Rain = 0
KPA1 142243Z 10010KT 27/17 A2998 RMK A01 T02740174  RH  055%=      5-min Rain = 0
KPA1 142244Z 13007KT 28/18 A2998 RMK A01 T02770177  RH  054%=      5-min Rain = 0
KPA1 142245Z 14008KT 28/18 A2998 RMK A01 T02770182  RH  056%=      5-min Rain = 0
KPA1 142246Z 14010KT 28/18 A2998 RMK A01 T02760182  RH  057%=      5-min Rain = 0
KPA1 142247Z 15010KT 28/18 A2997 RMK A01 T02760175  RH  054%=      5-min Rain = 0
KPA1 142248Z 14009KT 28/18 A2997 RMK A01 T02780179  RH  055%=      5-min Rain = 0
KPA1 142249Z 13012KT 28/18 A2997 RMK A01 T02780181  RH  056%=      5-min Rain = 0
KPA1 142250Z 13013KT 28/18 A2997 RMK A01 T02780181  RH  056%=      5-min Rain = 0
KPA1 142251Z 13012KT 28/18 A2997 RMK A01 T02800182  RH  055%=      5-min Rain = 0
KPA1 142252Z 12012KT 28/18 A2997 RMK A01 T02830184  RH  055%=      5-min Rain = 0
KPA1 142253Z 13011KT 29/19 A2997 RMK A01 T02880185  RH  054%=      5-min Rain = 0
KPA1 142254Z 13010KT 29/19 A2997 RMK A01 T02930187  RH  053%=      5-min Rain = 0
KPA1 142255Z 12011KT 30/19 A2997 RMK A01 T02980187  RH  051%=      5-min Rain = 0
KPA1 142256Z 13011KT 30/19 A2997 RMK A01 T03020186  RH  050%=      5-min Rain = 0
KPA1 142257Z 13010KT 31/19 A2997 RMK A01 T03060186  RH  049%=      5-min Rain = 0
KPA1 142258Z 13012KT 31/19 A2997 RMK A01 T03100187  RH  048%=      5-min Rain = 0
KPA1 142259Z 13011KT 31/18 A2997 RMK A01 T03120184  RH  047%=      5-min Rain = 0
KPA1 142300Z 13011KT 31/19 A2997 RMK A01 T03130186  RH  047%=      5-min Rain = 0
KPA1 142301Z 14013KT 31/18 A2997 RMK A01 T03130182  RH  046%=      5-min Rain = 0
KPA1 142302Z 14011KT 32/18 A2997 RMK A01 T03150178  RH  044%=      5-min Rain = 0
KPA1 142303Z 15011KT 32/18 A2997 RMK A01 T03170181  RH  044%=      5-min Rain = 0
KPA1 142304Z 15010KT 32/18 A2997 RMK A01 T03180181  RH  044%=      5-min Rain = 0
KPA1 142305Z 16011KT 32/18 A2997 RMK A01 T03180180  RH  044%=      5-min Rain = 0
KPA1 142306Z 15012KT 32/18 A2997 RMK A01 T03190183  RH  044%=      5-min Rain = 0
KPA1 142307Z 15012KT 32/18 A2997 RMK A01 T03210181  RH  043%=      5-min Rain = 0
KPA1 142308Z 15012KT 32/18 A2997 RMK A01 T03210181  RH  043%=      5-min Rain = 0
KPA1 142309Z 15012KT 32/18 A2997 RMK A01 T03210181  RH  043%=      5-min Rain = 0
KPA1 142310Z 15012KT 32/18 A2997 RMK A01 T03220179  RH  043%=      5-min Rain = 0
KPA1 142311Z 15011KT 32/18 A2997 RMK A01 T03220181  RH  043%=      5-min Rain = 0
KPA1 142312Z 15012KT 32/18 A2997 RMK A01 T03220179  RH  043%=      5-min Rain = 0
KPA1 142313Z 15011KT 32/18 A2997 RMK A01 T03230181  RH  043%=      5-min Rain = 0
KPA1 142314Z 15008KT 32/18 A2997 RMK A01 T03230183  RH  043%=      5-min Rain = 0
KPA1 142315Z 14012KT 33/18 A2997 RMK A01 T03250184  RH  043%=      5-min Rain = 0
KPA1 142316Z 15010KT 33/18 A2997 RMK A01 T03260182  RH  043%=      5-min Rain = 0
KPA1 142317Z 15013KT 33/18 A2997 RMK A01 T03250184  RH  043%=      5-min Rain = 0
KPA1 142318Z 15012KT 33/18 A2998 RMK A01 T03250183  RH  043%=      5-min Rain = 0
KPA1 142319Z 15013KT 33/18 A2998 RMK A01 T03250183  RH  043%=      5-min Rain = 0
KPA1 142320Z 15013KT 33/18 A2997 RMK A01 T03260179  RH  042%=      5-min Rain = 0
KPA1 142321Z 15014KT 33/18 A2998 RMK A01 T03270177  RH  041%=      5-min Rain = 0
KPA1 142322Z 16012KT 33/18 A2998 RMK A01 T03270179  RH  041%=      5-min Rain = 0
KPA1 142323Z 17013KT 33/18 A2998 RMK A01 T03270178  RH  041%=      5-min Rain = 0
KPA1 142324Z 17013KT 33/18 A2998 RMK A01 T03270175  RH  040%=      5-min Rain = 0
KPA1 142325Z 17012KT 33/18 A2998 RMK A01 T03270179  RH  041%=      5-min Rain = 0
KPA1 142326Z 18014KT 33/18 A2998 RMK A01 T03270180  RH  042%=      5-min Rain = 0
KPA1 142327Z 16014KT 33/18 A2998 RMK A01 T03250177  RH  041%=      5-min Rain = 0
KPA1 142328Z 17013KT 32/18 A2998 RMK A01 T03220177  RH  042%=      5-min Rain = 0
KPA1 142329Z 16012KT 32/18 A2998 RMK A01 T03210178  RH  043%=      5-min Rain = 0
KPA1 142330Z 16014KT 32/18 A2998 RMK A01 T03220177  RH  042%=      5-min Rain = 0
KPA1 142331Z 17013KT 32/17 A2998 RMK A01 T03240174  RH  041%=      5-min Rain = 0
KPA1 142332Z 16011KT 32/18 A2998 RMK A01 T03230175  RH  041%=      5-min Rain = 0
KPA1 142333Z 15011KT 33/18 A2998 RMK A01 T03250175  RH  041%=      5-min Rain = 0
KPA1 142334Z 16012G17KT 33/17 A2998 RMK A01 T03270173  RH  040%=      5-min Rain = 0
KPA1 142335Z 16013KT 33/17 A2998 RMK A01 T03280171  RH  039%=      5-min Rain = 0
KPA1 142336Z 17015KT 33/17 A2998 RMK A01 T03290171  RH  039%=      5-min Rain = 0
KPA1 142337Z 18014KT 33/17 A2998 RMK A01 T03270170  RH  039%=      5-min Rain = 0
KPA1 142338Z 17015KT 32/17 A2998 RMK A01 T03230168  RH  039%=      5-min Rain = 0
KPA1 142339Z 17012KT 32/17 A2998 RMK A01 T03210166  RH  039%=      5-min Rain = 0
KPA1 142340Z 17013KT 32/17 A2998 RMK A01 T03210165  RH  039%=      5-min Rain = 0
KPA1 142341Z 17014KT 32/16 A2998 RMK A01 T03220158  RH  037%=      5-min Rain = 0
KPA1 142342Z 18014KT 32/15 A2998 RMK A01 T03220154  RH  036%=      5-min Rain = 0
KPA1 142343Z 18015KT 32/15 A2998 RMK A01 T03200149  RH  036%=      5-min Rain = 0
KPA1 142344Z 18014KT 32/15 A2998 RMK A01 T03170150  RH  036%=      5-min Rain = 0
KPA1 142345Z 17017KT 32/14 A2998 RMK A01 T03150143  RH  035%=      5-min Rain = 0
KPA1 142346Z 17014KT 31/13 A2998 RMK A01 T03140133  RH  033%=      5-min Rain = 0
KPA1 142347Z 17016KT 31/13 A2998 RMK A01 T03120133  RH  034%=      5-min Rain = 0
KPA1 142348Z 17013KT 31/13 A2998 RMK A01 T03110132  RH  034%=      5-min Rain = 0
KPA1 142349Z 17013KT 31/13 A2998 RMK A01 T03090133  RH  034%=      5-min Rain = 0
KPA1 142350Z 17014KT 31/13 A2998 RMK A01 T03080134  RH  035%=      5-min Rain = 0
KPA1 142351Z 16015KT 31/13 A2998 RMK A01 T03070132  RH  034%=      5-min Rain = 0
KPA1 142352Z 17013KT 31/13 A2998 RMK A01 T03050132  RH  035%=      5-min Rain = 0
KPA1 142353Z 17014KT 30/13 A2998 RMK A01 T03040132  RH  035%=      5-min Rain = 0
KPA1 142354Z 17013KT 30/13 A2998 RMK A01 T03040130  RH  034%=      5-min Rain = 0
KPA1 142355Z 16013KT 30/13 A2998 RMK A01 T03030130  RH  035%=      5-min Rain = 0
KPA1 142356Z 16014KT 30/13 A2998 RMK A01 T03020129  RH  035%=      5-min Rain = 0
KPA1 142357Z 16012KT 30/13 A2998 RMK A01 T03010128  RH  035%=      5-min Rain = 0
KPA1 142358Z 16013KT 30/13 A2998 RMK A01 T03000130  RH  035%=      5-min Rain = 0
KPA1 142359Z 16013KT 30/13 A2998 RMK A01 T02990128  RH  035%=      5-min Rain = 0
KPA1 150000Z 15012KT 30/13 A2998 RMK A01 T02980130  RH  036%=      5-min Rain = 0
KPA1 150001Z 15012KT 30/13 A2998 RMK A01 T02970129  RH  036%=      5-min Rain = 0
KPA1 150002Z 15011KT 30/13 A2998 RMK A01 T02960130  RH  036%=      5-min Rain = 0
KPA1 150003Z 16012KT 29/13 A2997 RMK A01 T02940129  RH  036%=      5-min Rain = 0
KPA1 150004Z 16012KT 29/13 A2997 RMK A01 T02930128  RH  036%=      5-min Rain = 0
KPA1 150005Z 16011KT 29/13 A2997 RMK A01 T02930128  RH  036%=      5-min Rain = 0
KPA1 150006Z 16010KT 29/13 A2997 RMK A01 T02920128  RH  036%=      5-min Rain = 0
KPA1 150007Z 16012KT 29/13 A2997 RMK A01 T02910129  RH  037%=      5-min Rain = 0
KPA1 150008Z 16010KT 29/13 A2998 RMK A01 T02910128  RH  037%=      5-min Rain = 0
KPA1 150009Z 15010KT 29/13 A2998 RMK A01 T02900129  RH  037%=      5-min Rain = 0
KPA1 150010Z 15010KT 29/13 A2998 RMK A01 T02900129  RH  037%=      5-min Rain = 0
KPA1 150011Z 15010KT 29/13 A2998 RMK A01 T02890129  RH  037%=      5-min Rain = 0
KPA1 150012Z 15009KT 29/13 A2998 RMK A01 T02880130  RH  038%=      5-min Rain = 0
KPA1 150013Z 15009KT 29/13 A2998 RMK A01 T02870131  RH  038%=      5-min Rain = 0
KPA1 150014Z 16010KT 29/13 A2998 RMK A01 T02860131  RH  038%=      5-min Rain = 0
KPA1 150015Z 15008KT 29/13 A2998 RMK A01 T02860131  RH  039%=      5-min Rain = 0
KPA1 150016Z 15008KT 29/13 A2998 RMK A01 T02850133  RH  039%=      5-min Rain = 0
KPA1 150017Z 15008KT 28/13 A2998 RMK A01 T02840134  RH  040%=      5-min Rain = 0
KPA1 150018Z 15009KT 28/13 A2997 RMK A01 T02830134  RH  040%=      5-min Rain = 0
KPA1 150019Z 15010KT 28/14 A2997 RMK A01 T02830135  RH  040%=      5-min Rain = 0
KPA1 150020Z 14010KT 28/13 A2997 RMK A01 T02820134  RH  040%=      5-min Rain = 0
KPA1 150021Z 14011KT 28/13 A2997 RMK A01 T02810132  RH  040%=      5-min Rain = 0
KPA1 150022Z 14010KT 28/13 A2997 RMK A01 T02820132  RH  040%=      5-min Rain = 0
KPA1 150023Z 14009KT 28/13 A2998 RMK A01 T02820132  RH  040%=      5-min Rain = 0
KPA1 150024Z 14009KT 28/13 A2998 RMK A01 T02810132  RH  040%=      5-min Rain = 0
KPA1 150025Z 14009KT 28/13 A2997 RMK A01 T02810131  RH  040%=      5-min Rain = 0
KPA1 150026Z 14009KT 28/13 A2997 RMK A01 T02810130  RH  039%=      5-min Rain = 0
KPA1 150027Z 13009KT 28/13 A2997 RMK A01 T02810130  RH  039%=      5-min Rain = 0
KPA1 150028Z 13008KT 28/13 A2997 RMK A01 T02810131  RH  040%=      5-min Rain = 0
KPA1 150029Z 13008KT 28/13 A2997 RMK A01 T02810133  RH  040%=      5-min Rain = 0
KPA1 150030Z 13009KT 28/13 A2997 RMK A01 T02790133  RH  041%=      5-min Rain = 0
KPA1 150031Z 12008KT 28/13 A2997 RMK A01 T02780133  RH  041%=      5-min Rain = 0
KPA1 150032Z 12008KT 28/14 A2998 RMK A01 T02780135  RH  041%=      5-min Rain = 0
KPA1 150033Z 11009KT 28/14 A2998 RMK A01 T02770135  RH  042%=      5-min Rain = 0
KPA1 150034Z 10008KT 28/14 A2998 RMK A01 T02760136  RH  042%=      5-min Rain = 0
KPA1 150035Z 11007KT 28/14 A2998 RMK A01 T02750138  RH  043%=      5-min Rain = 0
KPA1 150036Z 11007KT 27/14 A2998 RMK A01 T02740138  RH  043%=      5-min Rain = 0
KPA1 150037Z 11007KT 27/14 A2998 RMK A01 T02740138  RH  043%=      5-min Rain = 0
KPA1 150038Z 12007KT 27/14 A2998 RMK A01 T02730138  RH  043%=      5-min Rain = 0
KPA1 150039Z 12006KT 27/14 A2998 RMK A01 T02730138  RH  043%=      5-min Rain = 0
KPA1 150040Z 12007KT 27/14 A2998 RMK A01 T02730138  RH  043%=      5-min Rain = 0
KPA1 150041Z 11007KT 27/14 A2998 RMK A01 T02730139  RH  043%=      5-min Rain = 0
KPA1 150042Z 10007KT 27/14 A2998 RMK A01 T02730139  RH  044%=      5-min Rain = 0
KPA1 150043Z 10008KT 27/14 A2998 RMK A01 T02730142  RH  045%=      5-min Rain = 0
KPA1 150044Z 09009KT 27/15 A2998 RMK A01 T02720145  RH  046%=      5-min Rain = 0
KPA1 150045Z 09009KT 27/15 A2998 RMK A01 T02700145  RH  046%=      5-min Rain = 0
KPA1 150046Z 09009KT 27/15 A2998 RMK A01 T02690145  RH  047%=      5-min Rain = 0
KPA1 150047Z 09009KT 27/14 A2998 RMK A01 T02680144  RH  047%=      5-min Rain = 0
KPA1 150048Z 10008KT 27/14 A2998 RMK A01 T02680144  RH  046%=      5-min Rain = 0
KPA1 150049Z 10008KT 27/15 A2998 RMK A01 T02690145  RH  047%=      5-min Rain = 0
KPA1 150050Z 10008KT 27/15 A2998 RMK A01 T02690145  RH  046%=      5-min Rain = 0
KPA1 150051Z 11007KT 27/14 A2998 RMK A01 T02700144  RH  046%=      5-min Rain = 0
KPA1 150052Z 12007KT 27/14 A2998 RMK A01 T02710143  RH  045%=      5-min Rain = 0
KPA1 150053Z 12008KT 27/14 A2998 RMK A01 T02720140  RH  044%=      5-min Rain = 0
KPA1 150054Z 12008KT 27/14 A2998 RMK A01 T02740137  RH  043%=      5-min Rain = 0
KPA1 150055Z 12008KT 28/14 A2998 RMK A01 T02760137  RH  042%=      5-min Rain = 0
KPA1 150056Z 12008KT 28/14 A2998 RMK A01 T02760137  RH  042%=      5-min Rain = 0
KPA1 150057Z 11008KT 28/14 A2998 RMK A01 T02770139  RH  043%=      5-min Rain = 0
KPA1 150058Z 11008KT 28/14 A2998 RMK A01 T02760141  RH  044%=      5-min Rain = 0
KPA1 150059Z 10009KT 27/14 A2998 RMK A01 T02740143  RH  045%=      5-min Rain = 0
KPA1 150100Z 10008KT 27/14 A2998 RMK A01 T02720144  RH  045%=      5-min Rain = 0
KPA1 150101Z 10008KT 27/14 A2999 RMK A01 T02700144  RH  046%=      5-min Rain = 0
KPA1 150102Z 10007KT 27/15 A2999 RMK A01 T02690145  RH  047%=      5-min Rain = 0
KPA1 150103Z 10007KT 27/15 A2998 RMK A01 T02670145  RH  047%=      5-min Rain = 0
KPA1 150104Z 11007KT 27/14 A2998 RMK A01 T02660144  RH  047%=      5-min Rain = 0
KPA1 150105Z 11007KT 27/15 A2998 RMK A01 T02660145  RH  047%=      5-min Rain = 0
KPA1 150106Z 11007KT 27/15 A2998 RMK A01 T02650145  RH  048%=      5-min Rain = 0
KPA1 150107Z 12007KT 26/15 A2999 RMK A01 T02640145  RH  048%=      5-min Rain = 0
KPA1 150108Z 12007KT 26/15 A2999 RMK A01 T02630145  RH  048%=      5-min Rain = 0
KPA1 150109Z 14007KT 26/15 A2999 RMK A01 T02630145  RH  048%=      5-min Rain = 0
KPA1 150110Z 16007KT 26/14 A2999 RMK A01 T02630143  RH  048%=      5-min Rain = 0
KPA1 150111Z 16006KT 26/14 A2999 RMK A01 T02630142  RH  047%=      5-min Rain = 0
KPA1 150112Z 13006KT 26/15 A2999 RMK A01 T02620146  RH  049%=      5-min Rain = 0
KPA1 150113Z 13007KT 26/14 A2999 RMK A01 T02600144  RH  049%=      5-min Rain = 0
KPA1 150114Z 13007KT 26/14 A2999 RMK A01 T02600139  RH  047%=      5-min Rain = 0
KPA1 150115Z 12007KT 26/14 A2999 RMK A01 T02610141  RH  047%=      5-min Rain = 0
KPA1 150116Z 12008KT 26/14 A30 RMK A01 T02620140  RH  047%=      5-min Rain = 0
KPA1 150117Z 12008KT 26/14 A30 RMK A01 T02620140  RH  047%=      5-min Rain = 0
KPA1 150118Z 13007KT 26/14 A30 RMK A01 T02630141  RH  047%=      5-min Rain = 0
KPA1 150119Z 13006KT 26/14 A30 RMK A01 T02630141  RH  047%=      5-min Rain = 0
KPA1 150120Z 13006KT 26/14 A30 RMK A01 T02630140  RH  047%=      5-min Rain = 0
KPA1 150121Z 12005KT 26/14 A30 RMK A01 T02630140  RH  047%=      5-min Rain = 0
KPA1 150122Z 10005KT 26/14 A30 RMK A01 T02630142  RH  047%=      5-min Rain = 0
KPA1 150123Z 09007KT 26/14 A30 RMK A01 T02610144  RH  049%=      5-min Rain = 0
KPA1 150124Z 09008KT 26/15 A30 RMK A01 T02580147  RH  050%=      5-min Rain = 0
KPA1 150125Z 08007KT 26/15 A30 RMK A01 T02550150  RH  052%=      5-min Rain = 0
KPA1 150126Z 09008KT 25/15 A30 RMK A01 T02520152  RH  054%=      5-min Rain = 0
KPA1 150127Z 09007KT 25/15 A30 RMK A01 T02490153  RH  055%=      5-min Rain = 0
KPA1 150128Z 09006KT 25/15 A30 RMK A01 T02480153  RH  056%=      5-min Rain = 0
KPA1 150129Z 09006KT 25/15 A30 RMK A01 T02470153  RH  056%=      5-min Rain = 0
KPA1 150130Z 09007KT 25/15 A30 RMK A01 T02460153  RH  056%=      5-min Rain = 0
KPA1 150131Z 09008KT 25/15 A30 RMK A01 T02450154  RH  057%=      5-min Rain = 0
KPA1 150132Z 09009KT 24/16 A30 RMK A01 T02440155  RH  058%=      5-min Rain = 0
KPA1 150133Z 09010KT 24/16 A30 RMK A01 T02430155  RH  058%=      5-min Rain = 0
KPA1 150134Z 09010KT 24/15 A30 RMK A01 T02420154  RH  058%=      5-min Rain = 0
KPA1 150135Z 10010KT 24/15 A30 RMK A01 T02420152  RH  057%=      5-min Rain = 0
KPA1 150136Z 10010KT 24/15 A3001 RMK A01 T02430150  RH  056%=      5-min Rain = 0
KPA1 150137Z 11009KT 25/15 A3001 RMK A01 T02450149  RH  055%=      5-min Rain = 0
KPA1 150138Z 11010KT 25/15 A3001 RMK A01 T02450146  RH  054%=      5-min Rain = 0
KPA1 150139Z 12010KT 25/14 A3001 RMK A01 T02470144  RH  053%=      5-min Rain = 0
KPA1 150140Z 11010KT 25/14 A3001 RMK A01 T02490143  RH  052%=      5-min Rain = 0
KPA1 150141Z 12009KT 25/14 A30 RMK A01 T02500143  RH  051%=      5-min Rain = 0
KPA1 150142Z 13008KT 25/14 A30 RMK A01 T02510142  RH  051%=      5-min Rain = 0
KPA1 150143Z 13008KT 25/14 A30 RMK A01 T02520144  RH  051%=      5-min Rain = 0
KPA1 150144Z 14008KT 25/15 A30 RMK A01 T02510145  RH  051%=      5-min Rain = 0
KPA1 150145Z 14009KT 25/14 A3001 RMK A01 T02510144  RH  051%=      5-min Rain = 0
KPA1 150146Z 15008KT 25/15 A3001 RMK A01 T02520145  RH  052%=      5-min Rain = 0
KPA1 150147Z 15009KT 25/15 A3001 RMK A01 T02480147  RH  053%=      5-min Rain = 0
KPA1 150148Z 14010KT 24/15 A3001 RMK A01 T02440147  RH  055%=      5-min Rain = 0
KPA1 150149Z 14011KT 24/15 A3001 RMK A01 T02410146  RH  055%=      5-min Rain = 0
KPA1 150150Z 15012KT 24/15 A3001 RMK A01 T02400145  RH  055%=      5-min Rain = 0
KPA1 150151Z 15012KT 24/15 A3001 RMK A01 T02410145  RH  055%=      5-min Rain = 0
KPA1 150152Z 14012KT 24/14 A3001 RMK A01 T02420143  RH  054%=      5-min Rain = 0
KPA1 150153Z 14012KT 25/14 A30 RMK A01 T02460141  RH  052%=      5-min Rain = 0
KPA1 150154Z 15011KT 25/14 A30 RMK A01 T02490140  RH  051%=      5-min Rain = 0
KPA1 150155Z 15012KT 25/14 A30 RMK A01 T02510138  RH  049%=      5-min Rain = 0
KPA1 150156Z 15012KT 25/14 A3001 RMK A01 T02530137  RH  049%=      5-min Rain = 0
KPA1 150157Z 15010KT 25/14 A3001 RMK A01 T02540137  RH  048%=      5-min Rain = 0
KPA1 150158Z 15010KT 25/14 A3001 RMK A01 T02540135  RH  048%=      5-min Rain = 0
KPA1 150159Z 15009KT 26/14 A3001 RMK A01 T02550135  RH  048%=      5-min Rain = 0
KPA1 150200Z 15009KT 25/14 A3001 RMK A01 T02540135  RH  048%=      5-min Rain = 0
KPA1 150201Z 15008KT 25/14 A3001 RMK A01 T02540135  RH  048%=      5-min Rain = 0
KPA1 150202Z 15007KT 25/14 A3001 RMK A01 T02530135  RH  048%=      5-min Rain = 0
KPA1 150203Z 15007KT 25/14 A3001 RMK A01 T02520135  RH  048%=      5-min Rain = 0
KPA1 150204Z 15007KT 25/14 A3001 RMK A01 T02510136  RH  049%=      5-min Rain = 0
KPA1 150205Z 14007KT 25/14 A3001 RMK A01 T02500136  RH  049%=      5-min Rain = 0
KPA1 150206Z 14007KT 25/14 A3001 RMK A01 T02490135  RH  049%=      5-min Rain = 0
KPA1 150207Z 15008KT 25/14 A3002 RMK A01 T02490135  RH  049%=      5-min Rain = 0
KPA1 150208Z 15007KT 25/13 A3002 RMK A01 T02500134  RH  049%=      5-min Rain = 0
KPA1 150209Z 16006KT 25/14 A3002 RMK A01 T02500135  RH  049%=      5-min Rain = 0
KPA1 150210Z 17005KT 25/13 A3002 RMK A01 T02490134  RH  049%=      5-min Rain = 0
KPA1 150211Z 18006KT 25/14 A3002 RMK A01 T02460135  RH  050%=      5-min Rain = 0
KPA1 150212Z 18006KT 24/13 A3002 RMK A01 T02410134  RH  051%=      5-min Rain = 0
KPA1 150213Z 17005KT 24/13 A3002 RMK A01 T02390133  RH  051%=      5-min Rain = 0
KPA1 150214Z 17005KT 24/13 A3002 RMK A01 T02390133  RH  052%=      5-min Rain = 0
KPA1 150215Z 17005KT 24/13 A3002 RMK A01 T02390133  RH  052%=      5-min Rain = 0
KPA1 150216Z 16005KT 24/13 A3002 RMK A01 T02380133  RH  052%=      5-min Rain = 0
KPA1 150217Z 16006KT 24/13 A3002 RMK A01 T02380133  RH  052%=      5-min Rain = 0
KPA1 150218Z 16006KT 24/13 A3002 RMK A01 T02380134  RH  052%=      5-min Rain = 0
KPA1 150219Z 16006KT 24/13 A3002 RMK A01 T02370133  RH  052%=      5-min Rain = 0
KPA1 150220Z 16006KT 24/13 A3002 RMK A01 T02370133  RH  052%=      5-min Rain = 0
KPA1 150221Z 16006KT 24/13 A3002 RMK A01 T02370133  RH  052%=      5-min Rain = 0
KPA1 150222Z 16006KT 24/13 A3003 RMK A01 T02360134  RH  053%=      5-min Rain = 0
KPA1 150223Z 16006KT 24/13 A3003 RMK A01 T02360134  RH  053%=      5-min Rain = 0
KPA1 150224Z 16006KT 24/14 A3003 RMK A01 T02350135  RH  053%=      5-min Rain = 0
KPA1 150225Z 16006KT 23/14 A3003 RMK A01 T02340135  RH  054%=      5-min Rain = 0
KPA1 150226Z 16006KT 23/14 A3003 RMK A01 T02330136  RH  054%=      5-min Rain = 0
KPA1 150227Z 16006KT 23/14 A3003 RMK A01 T02320136  RH  055%=      5-min Rain = 0
KPA1 150228Z 16006KT 23/14 A3003 RMK A01 T02310137  RH  055%=      5-min Rain = 0
KPA1 150229Z 16005KT 23/14 A3003 RMK A01 T02300137  RH  056%=      5-min Rain = 0
KPA1 150230Z 16005KT 23/14 A3003 RMK A01 T02300137  RH  056%=      5-min Rain = 0
KPA1 150231Z 15006KT 23/14 A3003 RMK A01 T02290137  RH  056%=      5-min Rain = 0
KPA1 150232Z 16007KT 23/14 A3003 RMK A01 T02290137  RH  056%=      5-min Rain = 0
KPA1 150233Z 16007KT 23/14 A3004 RMK A01 T02280138  RH  057%=      5-min Rain = 0
KPA1 150234Z 17006KT 23/14 A3004 RMK A01 T02270140  RH  058%=      5-min Rain = 0
KPA1 150235Z 17005KT 23/14 A3003 RMK A01 T02250139  RH  058%=      5-min Rain = 0
KPA1 150236Z 17005KT 22/14 A3004 RMK A01 T02240139  RH  059%=      5-min Rain = 0
KPA1 150237Z 17006KT 22/14 A3004 RMK A01 T02240138  RH  058%=      5-min Rain = 0
KPA1 150238Z 17006KT 23/14 A3004 RMK A01 T02250138  RH  058%=      5-min Rain = 0
KPA1 150239Z 16006KT 23/14 A3004 RMK A01 T02250136  RH  057%=      5-min Rain = 0
KPA1 150240Z 15006KT 23/14 A3003 RMK A01 T02260136  RH  057%=      5-min Rain = 0
KPA1 150241Z 15005KT 23/14 A3003 RMK A01 T02260137  RH  057%=      5-min Rain = 0
KPA1 150242Z 15005KT 23/14 A3004 RMK A01 T02260138  RH  057%=      5-min Rain = 0
KPA1 150243Z 17005KT 23/14 A3004 RMK A01 T02260138  RH  058%=      5-min Rain = 0
KPA1 150244Z 20002KT 23/14 A3004 RMK A01 T02250137  RH  057%=      5-min Rain = 0
KPA1 150245Z 24002KT 23/14 A3004 RMK A01 T02250135  RH  057%=      5-min Rain = 0
KPA1 150246Z 21002KT 23/13 A3004 RMK A01 T02250133  RH  056%=      5-min Rain = 0
KPA1 150247Z 24003KT 23/13 A3005 RMK A01 T02260133  RH  056%=      5-min Rain = 0
KPA1 150248Z 23004KT 23/14 A3005 RMK A01 T02260135  RH  056%=      5-min Rain = 0
KPA1 150249Z 20004KT 23/14 A3005 RMK A01 T02270136  RH  056%=      5-min Rain = 0
KPA1 150250Z 19006KT 23/14 A3005 RMK A01 T02270135  RH  056%=      5-min Rain = 0
KPA1 150251Z 19005KT 23/13 A3005 RMK A01 T02300133  RH  054%=      5-min Rain = 0
KPA1 150252Z 18007KT 23/13 A3005 RMK A01 T02320133  RH  054%=      5-min Rain = 0
KPA1 150253Z 19005KT 24/13 A3006 RMK A01 T02350133  RH  053%=      5-min Rain = 0
KPA1 150254Z 19004KT 24/13 A3006 RMK A01 T02360133  RH  052%=      5-min Rain = 0
KPA1 150255Z 20004KT 24/13 A3006 RMK A01 T02360133  RH  052%=      5-min Rain = 0
KPA1 150256Z 22004KT 24/13 A3006 RMK A01 T02360134  RH  052%=      5-min Rain = 0
KPA1 150257Z 22005KT 24/14 A3006 RMK A01 T02360135  RH  053%=      5-min Rain = 0
KPA1 150258Z 24004KT 24/14 A3006 RMK A01 T02360138  RH  054%=      5-min Rain = 0
KPA1 150259Z 24004KT 24/14 A3007 RMK A01 T02350139  RH  055%=      5-min Rain = 0
KPA1 150300Z 23004KT 24/14 A3007 RMK A01 T02350140  RH  055%=      5-min Rain = 0
KPA1 150301Z 20003KT 24/14 A3007 RMK A01 T02350139  RH  055%=      5-min Rain = 0
KPA1 150302Z 20002KT 24/14 A3007 RMK A01 T02350139  RH  055%=      5-min Rain = 0
KPA1 150303Z 21002KT 24/13 A3007 RMK A01 T02350133  RH  053%=      5-min Rain = 0
KPA1 150304Z 24002KT 24/13 A3007 RMK A01 T02360134  RH  053%=      5-min Rain = 0
KPA1 150305Z 26000KT 24/13 A3007 RMK A01 T02380134  RH  052%=      5-min Rain = 0
KPA1 150306Z 12000KT 24/13 A3007 RMK A01 T02390134  RH  052%=      5-min Rain = 0
KPA1 150307Z 12001KT 24/13 A3007 RMK A01 T02400134  RH  051%=      5-min Rain = 0
KPA1 150308Z 11002KT 24/13 A3007 RMK A01 T02410133  RH  051%=      5-min Rain = 0
KPA1 150309Z 13002KT 24/13 A3007 RMK A01 T02410133  RH  051%=      5-min Rain = 0
KPA1 150310Z 13002KT 24/13 A3007 RMK A01 T02410132  RH  051%=      5-min Rain = 0
KPA1 150311Z 13002KT 24/13 A3007 RMK A01 T02420130  RH  050%=      5-min Rain = 0
KPA1 150312Z 12002KT 24/13 A3007 RMK A01 T02430129  RH  049%=      5-min Rain = 0
KPA1 150313Z 09002KT 24/13 A3007 RMK A01 T02430134  RH  051%=      5-min Rain = 0
KPA1 150314Z 09002KT 24/14 A3007 RMK A01 T02430138  RH  052%=      5-min Rain = 0
KPA1 150315Z 09002KT 24/14 A3007 RMK A01 T02410140  RH  053%=      5-min Rain = 0
KPA1 150316Z 08003KT 24/14 A3008 RMK A01 T02400142  RH  054%=      5-min Rain = 0
KPA1 150317Z 08002KT 24/14 A3008 RMK A01 T02390144  RH  055%=      5-min Rain = 0
KPA1 150318Z 08001KT 24/14 A3008 RMK A01 T02380144  RH  055%=      5-min Rain = 0
KPA1 150319Z 05002KT 24/14 A3008 RMK A01 T02380141  RH  054%=      5-min Rain = 0
KPA1 150320Z 03003KT 24/14 A3008 RMK A01 T02380138  RH  053%=      5-min Rain = 0
KPA1 150321Z 02002KT 24/14 A3008 RMK A01 T02400139  RH  053%=      5-min Rain = 0
KPA1 150322Z 04002KT 24/14 A3008 RMK A01 T02410136  RH  052%=      5-min Rain = 0
KPA1 150323Z 07002KT 24/13 A3009 RMK A01 T02430134  RH  051%=      5-min Rain = 0
KPA1 150324Z 13001KT 25/14 A3009 RMK A01 T02450136  RH  051%=      5-min Rain = 0
KPA1 150325Z 16002KT 25/14 A3009 RMK A01 T02450140  RH  052%=      5-min Rain = 0
KPA1 150326Z 19002KT 25/14 A3009 RMK A01 T02450140  RH  052%=      5-min Rain = 0
KPA1 150327Z 21004KT 24/15 A3009 RMK A01 T02430150  RH  056%=      5-min Rain = 0
KPA1 150328Z 19004KT 24/15 A3009 RMK A01 T02380149  RH  057%=      5-min Rain = 0
KPA1 150329Z 18005KT 24/15 A3009 RMK A01 T02360148  RH  058%=      5-min Rain = 0
KPA1 150330Z 19006KT 23/15 A3009 RMK A01 T02340145  RH  057%=      5-min Rain = 0
KPA1 150331Z 18010KT 24/14 A3009 RMK A01 T02350139  RH  055%=      5-min Rain = 0
KPA1 150332Z 17013KT 24/14 A3009 RMK A01 T02440135  RH  050%=      5-min Rain = 0
KPA1 150333Z 18012KT 25/14 A3009 RMK A01 T02520139  RH  049%=      5-min Rain = 0
KPA1 150334Z 19011KT 25/14 A3009 RMK A01 T02520141  RH  050%=      5-min Rain = 0
KPA1 150335Z 19012KT 25/14 A3009 RMK A01 T02520139  RH  050%=      5-min Rain = 0
KPA1 150336Z 20011KT 25/14 A3009 RMK A01 T02540139  RH  049%=      5-min Rain = 0
KPA1 150337Z 19010KT 26/14 A3009 RMK A01 T02560139  RH  048%=      5-min Rain = 0
KPA1 150338Z 19009KT 26/14 A3009 RMK A01 T02560140  RH  049%=      5-min Rain = 0
KPA1 150339Z 19008KT 26/14 A3009 RMK A01 T02550140  RH  049%=      5-min Rain = 0
KPA1 150340Z 19008KT 25/14 A3009 RMK A01 T02540141  RH  050%=      5-min Rain = 0
KPA1 150341Z 19007KT 25/14 A3009 RMK A01 T02520142  RH  051%=      5-min Rain = 0
KPA1 150342Z 19007KT 25/14 A301 RMK A01 T02500143  RH  051%=      5-min Rain = 0
KPA1 150343Z 20006KT 25/14 A301 RMK A01 T02480144  RH  052%=      5-min Rain = 0
KPA1 150344Z 20005KT 25/15 A301 RMK A01 T02470145  RH  053%=      5-min Rain = 0
KPA1 150345Z 20005KT 25/15 A301 RMK A01 T02450145  RH  054%=      5-min Rain = 0
KPA1 150346Z 20005KT 24/15 A301 RMK A01 T02440146  RH  054%=      5-min Rain = 0
KPA1 150347Z 20005KT 24/15 A301 RMK A01 T02430145  RH  055%=      5-min Rain = 0
KPA1 150348Z 21005KT 24/15 A301 RMK A01 T02420145  RH  055%=      5-min Rain = 0
KPA1 150349Z 22004KT 24/15 A301 RMK A01 T02420145  RH  055%=      5-min Rain = 0
KPA1 150350Z 23003KT 24/15 A301 RMK A01 T02420146  RH  055%=      5-min Rain = 0
KPA1 150351Z 25002KT 24/15 A3011 RMK A01 T02420146  RH  055%=      5-min Rain = 0
KPA1 150352Z 29004KT 24/15 A3011 RMK A01 T02420146  RH  055%=      5-min Rain = 0
KPA1 150353Z 29007KT 24/15 A3011 RMK A01 T02420149  RH  056%=      5-min Rain = 0
KPA1 150354Z 30007KT 24/15 A3012 RMK A01 T02420148  RH  056%=      5-min Rain = 0
KPA1 150355Z 31008KT 24/15 A3012 RMK A01 T02430146  RH  054%=      5-min Rain = 0
KPA1 150356Z 33010KT 25/14 A3013 RMK A01 T02470143  RH  052%=      5-min Rain = 0
KPA1 150357Z 34012KT 25/14 A3013 RMK A01 T02510144  RH  051%=      5-min Rain = 0
KPA1 150358Z 35013KT 25/14 A3014 RMK A01 T02540143  RH  050%=      5-min Rain = 0
KPA1 150359Z 35016KT 26/14 A3014 RMK A01 T02560140  RH  049%=      5-min Rain = 0
KPA1 150400Z 35016KT 26/14 A3015 RMK A01 T02600139  RH  047%=      5-min Rain = 0
KPA1 150401Z 35015KT 26/14 A3015 RMK A01 T02620139  RH  047%=      5-min Rain = 0
KPA1 150402Z 35016KT 26/14 A3015 RMK A01 T02630139  RH  046%=      5-min Rain = 0
KPA1 150403Z 35015KT 26/14 A3015 RMK A01 T02630142  RH  047%=      5-min Rain = 0
KPA1 150404Z 35014KT 26/14 A3015 RMK A01 T02630144  RH  048%=      5-min Rain = 0
KPA1 150405Z 35016KT 26/15 A3015 RMK A01 T02620145  RH  049%=      5-min Rain = 0
KPA1 150406Z 35014KT 26/15 A3015 RMK A01 T02610148  RH  050%=      5-min Rain = 0
KPA1 150407Z 35014KT 26/15 A3015 RMK A01 T02590151  RH  051%=      5-min Rain = 0
KPA1 150408Z 36016KT 26/15 A3015 RMK A01 T02580154  RH  053%=      5-min Rain = 0
KPA1 150409Z 36016KT 26/16 A3015 RMK A01 T02560158  RH  055%=      5-min Rain = 0
KPA1 150410Z 36015KT 25/16 A3016 RMK A01 T02540161  RH  056%=      5-min Rain = 0
KPA1 150411Z 36017KT 25/16 A3016 RMK A01 T02520163  RH  058%=      5-min Rain = 0
KPA1 150412Z 35018KT 25/17 A3016 RMK A01 T02520165  RH  058%=      5-min Rain = 0
KPA1 150413Z 35021KT 25/16 A3016 RMK A01 T02510164  RH  058%=      5-min Rain = 0
KPA1 150414Z 35019KT 25/16 A3016 RMK A01 T02520164  RH  058%=      5-min Rain = 0
KPA1 150415Z 34017KT 25/16 A3016 RMK A01 T02530164  RH  058%=      5-min Rain = 0
KPA1 150416Z 35013KT 25/17 A3016 RMK A01 T02530165  RH  058%=      5-min Rain = 0
KPA1 150417Z 36013KT 25/17 A3016 RMK A01 T02510166  RH  059%=      5-min Rain = 0
KPA1 150418Z 36017KT 25/17 A3016 RMK A01 T02500166  RH  059%=      5-min Rain = 0
KPA1 150419Z 00016KT 25/17 A3016 RMK A01 T02510165  RH  059%=      5-min Rain = 0
KPA1 150420Z 36014KT 25/17 A3016 RMK A01 T02510165  RH  059%=      5-min Rain = 0
KPA1 150421Z 36017KT 25/17 A3016 RMK A01 T02500165  RH  059%=      5-min Rain = 0
KPA1 150422Z 36016KT 25/16 A3016 RMK A01 T02500163  RH  059%=      5-min Rain = 0
KPA1 150423Z 36017KT 25/16 A3016 RMK A01 T02500163  RH  058%=      5-min Rain = 0
KPA1 150424Z 36014KT 25/16 A3016 RMK A01 T02490164  RH  059%=      5-min Rain = 0
KPA1 150425Z 36011G19KT 25/17 A3016 RMK A01 T02470165  RH  060%=      5-min Rain = 0
KPA1 150426Z 00014KT 25/16 A3016 RMK A01 T02450163  RH  060%=      5-min Rain = 0
KPA1 150427Z 00013KT 24/16 A3016 RMK A01 T02440162  RH  060%=      5-min Rain = 0
KPA1 150428Z 01014KT 24/16 A3016 RMK A01 T02440163  RH  060%=      5-min Rain = 0
KPA1 150429Z 00018KT 24/16 A3016 RMK A01 T02440161  RH  060%=      5-min Rain = 0
KPA1 150430Z 00017G23KT 24/16 A3016 RMK A01 T02440160  RH  059%=      5-min Rain = 0
KPA1 150431Z 00017KT 25/16 A3016 RMK A01 T02450161  RH  059%=      5-min Rain = 0
KPA1 150432Z 00015KT 25/16 A3016 RMK A01 T02450161  RH  059%=      5-min Rain = 0
KPA1 150433Z 01016KT 25/16 A3016 RMK A01 T02450160  RH  059%=      5-min Rain = 0
KPA1 150434Z 01016G22KT 24/16 A3016 RMK A01 T02440160  RH  059%=      5-min Rain = 0
KPA1 150435Z 01017KT 24/16 A3016 RMK A01 T02440160  RH  059%=      5-min Rain = 0
KPA1 150436Z 01015G20KT 24/16 A3016 RMK A01 T02440158  RH  059%=      5-min Rain = 0
KPA1 150437Z 01017KT 24/16 A3016 RMK A01 T02440158  RH  059%=      5-min Rain = 0
KPA1 150438Z 01015KT 24/16 A3016 RMK A01 T02440158  RH  059%=      5-min Rain = 0
KPA1 150439Z 02017KT 24/16 A3016 RMK A01 T02440158  RH  059%=      5-min Rain = 0
KPA1 150440Z 02015KT 24/16 A3016 RMK A01 T02440158  RH  059%=      5-min Rain = 0
KPA1 150441Z 02015KT 24/16 A3016 RMK A01 T02430157  RH  059%=      5-min Rain = 0
KPA1 150442Z 02017KT 24/16 A3015 RMK A01 T02430157  RH  059%=      5-min Rain = 0
KPA1 150443Z 02014KT 24/16 A3015 RMK A01 T02440158  RH  059%=      5-min Rain = 0
KPA1 150444Z 02017KT 24/16 A3015 RMK A01 T02430156  RH  058%=      5-min Rain = 0
KPA1 150445Z 02016KT 24/16 A3015 RMK A01 T02430156  RH  058%=      5-min Rain = 0
KPA1 150446Z 02016KT 24/16 A3015 RMK A01 T02420156  RH  059%=      5-min Rain = 0
KPA1 150447Z 02016KT 24/16 A3015 RMK A01 T02420156  RH  059%=      5-min Rain = 0
KPA1 150448Z 02018G23KT 24/15 A3015 RMK A01 T02420151  RH  057%=      5-min Rain = 0
KPA1 150449Z 02017G22KT 24/15 A3015 RMK A01 T02420150  RH  056%=      5-min Rain = 0
KPA1 150450Z 03018KT 24/15 A3015 RMK A01 T02430149  RH  056%=      5-min Rain = 0
KPA1 150451Z 03017KT 24/15 A3015 RMK A01 T02430147  RH  055%=      5-min Rain = 0
KPA1 150452Z 03017KT 24/14 A3015 RMK A01 T02430142  RH  053%=      5-min Rain = 0
KPA1 150453Z 03017KT 24/14 A3015 RMK A01 T02430142  RH  053%=      5-min Rain = 0
KPA1 150454Z 03017KT 24/14 A3015 RMK A01 T02440141  RH  053%=      5-min Rain = 0
KPA1 150455Z 03017KT 24/14 A3014 RMK A01 T02430140  RH  053%=      5-min Rain = 0
KPA1 150456Z 03019G24KT 24/14 A3014 RMK A01 T02420139  RH  052%=      5-min Rain = 0
KPA1 150457Z 03022KT 24/13 A3014 RMK A01 T02430134  RH  051%=      5-min Rain = 0
KPA1 150458Z 03020KT 24/13 A3014 RMK A01 T02440132  RH  049%=      5-min Rain = 0
KPA1 150459Z 03018KT 25/13 A3014 RMK A01 T02460130  RH  049%=      5-min Rain = 0

Page generated in 0.1256 seconds.